Observation data for Stamford on 01/18/2019      Previous  Date  Next       Current Mesonet Observations  Soil Data  Daily Summary Page  Observations in Plain Language
KST2 180600Z 16004KT 06/05 A3005 RMK A01 T00640048  RH  090%=      5-min Rain = 0
KST2 180601Z 16004KT 06/05 A3005 RMK A01 T00640049  RH  090%=      5-min Rain = 0
KST2 180602Z 17004KT 06/05 A3005 RMK A01 T00640048  RH  090%=      5-min Rain = 0
KST2 180603Z 16004KT 06/05 A3005 RMK A01 T00640048  RH  090%=      5-min Rain = 0
KST2 180604Z 17005KT 06/05 A3005 RMK A01 T00640048  RH  090%=      5-min Rain = 0
KST2 180605Z 17005KT 06/05 A3005 RMK A01 T00640048  RH  090%=      5-min Rain = 0
KST2 180606Z 17005KT 06/05 A3005 RMK A01 T00640048  RH  089%=      5-min Rain = 0
KST2 180607Z 17005KT 06/05 A3005 RMK A01 T00640048  RH  089%=      5-min Rain = 0
KST2 180608Z 17005KT 06/05 A3005 RMK A01 T00640048  RH  089%=      5-min Rain = 0
KST2 180609Z 17005KT 06/05 A3005 RMK A01 T00640048  RH  089%=      5-min Rain = 0
KST2 180610Z 17006KT 06/05 A3004 RMK A01 T00640048  RH  089%=      5-min Rain = 0
KST2 180611Z 17006KT 06/05 A3004 RMK A01 T00640048  RH  090%=      5-min Rain = 0
KST2 180612Z 17006KT 06/05 A3004 RMK A01 T00630048  RH  090%=      5-min Rain = 0
KST2 180613Z 17006KT 06/05 A3004 RMK A01 T00640048  RH  090%=      5-min Rain = 0
KST2 180614Z 17007KT 06/05 A3004 RMK A01 T00640049  RH  090%=      5-min Rain = 0
KST2 180615Z 17007KT 06/05 A3004 RMK A01 T00630048  RH  090%=      5-min Rain = 0
KST2 180616Z 17007KT 06/05 A3004 RMK A01 T00640049  RH  090%=      5-min Rain = 0
KST2 180617Z 17007KT 06/05 A3004 RMK A01 T00640049  RH  090%=      5-min Rain = 0
KST2 180618Z 17007KT 06/05 A3004 RMK A01 T00640049  RH  090%=      5-min Rain = 0
KST2 180619Z 17007KT 07/05 A3004 RMK A01 T00650050  RH  090%=      5-min Rain = 0
KST2 180620Z 17006KT 07/05 A3004 RMK A01 T00660050  RH  089%=      5-min Rain = 0
KST2 180621Z 17006KT 07/05 A3004 RMK A01 T00660050  RH  089%=      5-min Rain = 0
KST2 180622Z 17007KT 07/05 A3004 RMK A01 T00670050  RH  089%=      5-min Rain = 0
KST2 180623Z 17007KT 07/05 A3004 RMK A01 T00670050  RH  089%=      5-min Rain = 0
KST2 180624Z 17007KT 07/05 A3004 RMK A01 T00670050  RH  089%=      5-min Rain = 0
KST2 180625Z 17007KT 07/05 A3004 RMK A01 T00670050  RH  089%=      5-min Rain = 0
KST2 180626Z 17007KT 07/05 A3003 RMK A01 T00670050  RH  089%=      5-min Rain = 0
KST2 180627Z 17007KT 07/05 A3003 RMK A01 T00670050  RH  089%=      5-min Rain = 0
KST2 180628Z 17007KT 07/05 A3003 RMK A01 T00670050  RH  089%=      5-min Rain = 0
KST2 180629Z 17007KT 07/05 A3003 RMK A01 T00670050  RH  089%=      5-min Rain = 0
KST2 180630Z 17007KT 07/05 A3003 RMK A01 T00670050  RH  089%=      5-min Rain = 0
KST2 180631Z 17006KT 07/05 A3003 RMK A01 T00670050  RH  089%=      5-min Rain = 0
KST2 180632Z 17006KT 07/05 A3003 RMK A01 T00680051  RH  089%=      5-min Rain = 0
KST2 180633Z 17006KT 07/05 A3003 RMK A01 T00680051  RH  089%=      5-min Rain = 0
KST2 180634Z 17005KT 07/05 A3003 RMK A01 T00680051  RH  089%=      5-min Rain = 0
KST2 180635Z 17005KT 07/05 A3003 RMK A01 T00690051  RH  088%=      5-min Rain = 0
KST2 180636Z 17005KT 07/05 A3003 RMK A01 T00690051  RH  088%=      5-min Rain = 0
KST2 180637Z 17005KT 07/05 A3003 RMK A01 T00690051  RH  088%=      5-min Rain = 0
KST2 180638Z 17005KT 07/05 A3003 RMK A01 T00690051  RH  088%=      5-min Rain = 0
KST2 180639Z 17005KT 07/05 A3003 RMK A01 T00690051  RH  088%=      5-min Rain = 0
KST2 180640Z 17005KT 07/05 A3003 RMK A01 T00690051  RH  088%=      5-min Rain = 0
KST2 180641Z 17005KT 07/05 A3003 RMK A01 T00690051  RH  088%=      5-min Rain = 0
KST2 180642Z 17005KT 07/05 A3003 RMK A01 T00680051  RH  088%=      5-min Rain = 0
KST2 180643Z 17005KT 07/05 A3003 RMK A01 T00680050  RH  089%=      5-min Rain = 0
KST2 180644Z 17005KT 07/05 A3003 RMK A01 T00670050  RH  089%=      5-min Rain = 0
KST2 180645Z 18005KT 07/05 A3003 RMK A01 T00670050  RH  089%=      5-min Rain = 0
KST2 180646Z 17005KT 07/05 A3003 RMK A01 T00670050  RH  089%=      5-min Rain = 0
KST2 180647Z 17006KT 07/05 A3003 RMK A01 T00670049  RH  089%=      5-min Rain = 0
KST2 180648Z 17006KT 07/05 A3003 RMK A01 T00670049  RH  089%=      5-min Rain = 0
KST2 180649Z 17006KT 07/05 A3003 RMK A01 T00670050  RH  089%=      5-min Rain = 0
KST2 180650Z 17007KT 07/05 A3003 RMK A01 T00670050  RH  089%=      5-min Rain = 0
KST2 180651Z 17007KT 07/05 A3003 RMK A01 T00680050  RH  089%=      5-min Rain = 0
KST2 180652Z 17006KT 07/05 A3003 RMK A01 T00690051  RH  088%=      5-min Rain = 0
KST2 180653Z 17006KT 07/05 A3003 RMK A01 T00700051  RH  088%=      5-min Rain = 0
KST2 180654Z 17006KT 07/05 A3003 RMK A01 T00710051  RH  087%=      5-min Rain = 0
KST2 180655Z 18005KT 07/05 A3003 RMK A01 T00710051  RH  087%=      5-min Rain = 0
KST2 180656Z 18005KT 07/05 A3003 RMK A01 T00720051  RH  087%=      5-min Rain = 0
KST2 180657Z 18005KT 07/05 A3003 RMK A01 T00710051  RH  087%=      5-min Rain = 0
KST2 180658Z 18006KT 07/05 A3003 RMK A01 T00710051  RH  087%=      5-min Rain = 0
KST2 180659Z 19005KT 07/05 A3003 RMK A01 T00710051  RH  087%=      5-min Rain = 0
KST2 180700Z 18005KT 07/05 A3003 RMK A01 T00710052  RH  087%=      5-min Rain = 0
KST2 180701Z 18005KT 07/05 A3003 RMK A01 T00710052  RH  087%=      5-min Rain = 0
KST2 180702Z 18005KT 07/05 A3003 RMK A01 T00720053  RH  087%=      5-min Rain = 0
KST2 180703Z 18005KT 07/05 A3003 RMK A01 T00720052  RH  088%=      5-min Rain = 0
KST2 180704Z 18005KT 07/05 A3003 RMK A01 T00720053  RH  088%=      5-min Rain = 0
KST2 180705Z 18006KT 07/05 A3002 RMK A01 T00730053  RH  087%=      5-min Rain = 0
KST2 180706Z 18006KT 07/05 A3002 RMK A01 T00730053  RH  087%=      5-min Rain = 0
KST2 180707Z 18006KT 07/05 A3002 RMK A01 T00730053  RH  087%=      5-min Rain = 0
KST2 180708Z 18006KT 07/05 A3002 RMK A01 T00730053  RH  087%=      5-min Rain = 0
KST2 180709Z 18006KT 07/05 A3002 RMK A01 T00730053  RH  087%=      5-min Rain = 0
KST2 180710Z 18006KT 07/05 A3002 RMK A01 T00730053  RH  087%=      5-min Rain = 0
KST2 180711Z 17005KT 07/05 A3002 RMK A01 T00730053  RH  087%=      5-min Rain = 0
KST2 180712Z 17005KT 07/05 A3002 RMK A01 T00730053  RH  087%=      5-min Rain = 0
KST2 180713Z 17005KT 07/05 A3002 RMK A01 T00730053  RH  087%=      5-min Rain = 0
KST2 180714Z 17005KT 07/05 A3002 RMK A01 T00730053  RH  087%=      5-min Rain = 0
KST2 180715Z 17005KT 07/05 A3002 RMK A01 T00720052  RH  087%=      5-min Rain = 0
KST2 180716Z 17005KT 07/05 A3002 RMK A01 T00720053  RH  087%=      5-min Rain = 0
KST2 180717Z 17005KT 07/05 A3002 RMK A01 T00720052  RH  087%=      5-min Rain = 0
KST2 180718Z 17005KT 07/05 A3002 RMK A01 T00720052  RH  088%=      5-min Rain = 0
KST2 180719Z 18004KT 07/05 A3002 RMK A01 T00710052  RH  088%=      5-min Rain = 0
KST2 180720Z 18004KT 07/05 A3001 RMK A01 T00710053  RH  088%=      5-min Rain = 0
KST2 180721Z 18004KT 07/05 A3001 RMK A01 T00710052  RH  088%=      5-min Rain = 0
KST2 180722Z 18004KT 07/05 A3001 RMK A01 T00710052  RH  088%=      5-min Rain = 0
KST2 180723Z 18004KT 07/05 A3001 RMK A01 T00710053  RH  088%=      5-min Rain = 0
KST2 180724Z 18004KT 07/05 A3001 RMK A01 T00710052  RH  088%=      5-min Rain = 0
KST2 180725Z 18004KT 07/05 A3001 RMK A01 T00710052  RH  088%=      5-min Rain = 0
KST2 180726Z 18004KT 07/05 A3001 RMK A01 T00710052  RH  088%=      5-min Rain = 0
KST2 180727Z 18004KT 07/05 A3001 RMK A01 T00710052  RH  088%=      5-min Rain = 0
KST2 180728Z 18004KT 07/05 A3001 RMK A01 T00710052  RH  088%=      5-min Rain = 0
KST2 180729Z 18004KT 07/05 A3001 RMK A01 T00720052  RH  087%=      5-min Rain = 0
KST2 180730Z 18004KT 07/05 A3001 RMK A01 T00720052  RH  087%=      5-min Rain = 0
KST2 180731Z 18004KT 07/05 A3001 RMK A01 T00720052  RH  087%=      5-min Rain = 0
KST2 180732Z 18004KT 07/05 A3001 RMK A01 T00720052  RH  087%=      5-min Rain = 0
KST2 180733Z 18004KT 07/05 A3001 RMK A01 T00720053  RH  088%=      5-min Rain = 0
KST2 180734Z 19004KT 07/05 A3001 RMK A01 T00720053  RH  088%=      5-min Rain = 0
KST2 180735Z 18004KT 07/05 A3001 RMK A01 T00720053  RH  088%=      5-min Rain = 0
KST2 180736Z 18004KT 07/05 A3001 RMK A01 T00720053  RH  088%=      5-min Rain = 0
KST2 180737Z 18004KT 07/05 A3001 RMK A01 T00720053  RH  088%=      5-min Rain = 0
KST2 180738Z 19004KT 07/05 A3001 RMK A01 T00720053  RH  088%=      5-min Rain = 0
KST2 180739Z 19004KT 07/05 A3001 RMK A01 T00720053  RH  088%=      5-min Rain = 0
KST2 180740Z 19004KT 07/05 A3001 RMK A01 T00720053  RH  088%=      5-min Rain = 0
KST2 180741Z 19004KT 07/05 A3001 RMK A01 T00720053  RH  088%=      5-min Rain = 0
KST2 180742Z 18004KT 07/05 A3001 RMK A01 T00720053  RH  088%=      5-min Rain = 0
KST2 180743Z 19004KT 07/05 A3001 RMK A01 T00720053  RH  088%=      5-min Rain = 0
KST2 180744Z 19004KT 07/05 A3001 RMK A01 T00720053  RH  087%=      5-min Rain = 0
KST2 180745Z 19004KT 07/05 A30 RMK A01 T00730053  RH  087%=      5-min Rain = 0
KST2 180746Z 18004KT 07/05 A30 RMK A01 T00730053  RH  087%=      5-min Rain = 0
KST2 180747Z 19004KT 07/05 A30 RMK A01 T00730053  RH  087%=      5-min Rain = 0
KST2 180748Z 19003KT 07/05 A30 RMK A01 T00730053  RH  087%=      5-min Rain = 0
KST2 180749Z 19004KT 07/05 A30 RMK A01 T00730053  RH  087%=      5-min Rain = 0
KST2 180750Z 19004KT 07/05 A30 RMK A01 T00730053  RH  088%=      5-min Rain = 0
KST2 180751Z 19004KT 07/05 A30 RMK A01 T00730053  RH  087%=      5-min Rain = 0
KST2 180752Z 19004KT 07/05 A30 RMK A01 T00730053  RH  087%=      5-min Rain = 0
KST2 180753Z 19004KT 07/05 A30 RMK A01 T00730052  RH  087%=      5-min Rain = 0
KST2 180754Z 19004KT 07/05 A30 RMK A01 T00730052  RH  087%=      5-min Rain = 0
KST2 180755Z 19005KT 07/05 A30 RMK A01 T00730052  RH  087%=      5-min Rain = 0
KST2 180756Z 19005KT 07/05 A30 RMK A01 T00730052  RH  087%=      5-min Rain = 0
KST2 180757Z 19005KT 07/05 A30 RMK A01 T00730052  RH  086%=      5-min Rain = 0
KST2 180758Z 19006KT 07/05 A30 RMK A01 T00730053  RH  087%=      5-min Rain = 0
KST2 180759Z 19006KT 08/05 A30 RMK A01 T00750054  RH  087%=      5-min Rain = 0
KST2 180800Z 18007KT 08/06 A30 RMK A01 T00770055  RH  086%=      5-min Rain = 0
KST2 180801Z 19008KT 08/06 A30 RMK A01 T00790056  RH  085%=      5-min Rain = 0
KST2 180802Z 19008KT 08/06 A30 RMK A01 T00800056  RH  085%=      5-min Rain = 0
KST2 180803Z 19008KT 08/06 A30 RMK A01 T00820056  RH  084%=      5-min Rain = 0
KST2 180804Z 18008KT 08/06 A30 RMK A01 T00830056  RH  083%=      5-min Rain = 0
KST2 180805Z 19008KT 08/06 A30 RMK A01 T00840056  RH  083%=      5-min Rain = 0
KST2 180806Z 19009KT 09/06 A30 RMK A01 T00850056  RH  082%=      5-min Rain = 0
KST2 180807Z 18009KT 09/06 A2999 RMK A01 T00860056  RH  082%=      5-min Rain = 0
KST2 180808Z 18008KT 09/06 A2999 RMK A01 T00860056  RH  081%=      5-min Rain = 0
KST2 180809Z 18008KT 09/06 A2999 RMK A01 T00860056  RH  081%=      5-min Rain = 0
KST2 180810Z 18008KT 09/06 A2999 RMK A01 T00860056  RH  081%=      5-min Rain = 0
KST2 180811Z 18007KT 09/06 A2999 RMK A01 T00860056  RH  081%=      5-min Rain = 0
KST2 180812Z 18008KT 09/06 A2999 RMK A01 T00860056  RH  082%=      5-min Rain = 0
KST2 180813Z 18007KT 09/06 A2999 RMK A01 T00860056  RH  081%=      5-min Rain = 0
KST2 180814Z 18007KT 09/06 A2999 RMK A01 T00860056  RH  081%=      5-min Rain = 0
KST2 180815Z 18006KT 09/06 A2999 RMK A01 T00860056  RH  081%=      5-min Rain = 0
KST2 180816Z 18007KT 09/06 A2999 RMK A01 T00850056  RH  082%=      5-min Rain = 0
KST2 180817Z 18006KT 09/06 A2999 RMK A01 T00850056  RH  082%=      5-min Rain = 0
KST2 180818Z 19007KT 09/06 A2999 RMK A01 T00850056  RH  082%=      5-min Rain = 0
KST2 180819Z 18007KT 09/06 A2999 RMK A01 T00860056  RH  082%=      5-min Rain = 0
KST2 180820Z 18007KT 09/06 A30 RMK A01 T00850055  RH  081%=      5-min Rain = 0
KST2 180821Z 18006KT 09/06 A2999 RMK A01 T00850055  RH  081%=      5-min Rain = 0
KST2 180822Z 18006KT 09/06 A2999 RMK A01 T00860055  RH  081%=      5-min Rain = 0
KST2 180823Z 18007KT 09/06 A2999 RMK A01 T00850055  RH  081%=      5-min Rain = 0
KST2 180824Z 19006KT 09/06 A2999 RMK A01 T00860055  RH  081%=      5-min Rain = 0
KST2 180825Z 18007KT 09/06 A2999 RMK A01 T00860055  RH  081%=      5-min Rain = 0
KST2 180826Z 19006KT 09/06 A2999 RMK A01 T00860055  RH  081%=      5-min Rain = 0
KST2 180827Z 18006KT 09/06 A2999 RMK A01 T00860056  RH  081%=      5-min Rain = 0
KST2 180828Z 18006KT 09/06 A2999 RMK A01 T00860055  RH  081%=      5-min Rain = 0
KST2 180829Z 18006KT 09/06 A2999 RMK A01 T00860055  RH  081%=      5-min Rain = 0
KST2 180830Z 18007KT 09/06 A2999 RMK A01 T00860055  RH  081%=      5-min Rain = 0
KST2 180831Z 18007KT 09/06 A2999 RMK A01 T00860055  RH  081%=      5-min Rain = 0
KST2 180832Z 18007KT 09/06 A2999 RMK A01 T00860055  RH  081%=      5-min Rain = 0
KST2 180833Z 18007KT 09/06 A2999 RMK A01 T00860055  RH  081%=      5-min Rain = 0
KST2 180834Z 18007KT 09/06 A2999 RMK A01 T00860055  RH  081%=      5-min Rain = 0
KST2 180835Z 17007KT 09/06 A2999 RMK A01 T00860055  RH  081%=      5-min Rain = 0
KST2 180836Z 18007KT 09/06 A2999 RMK A01 T00860055  RH  081%=      5-min Rain = 0
KST2 180837Z 18007KT 09/06 A2999 RMK A01 T00860055  RH  081%=      5-min Rain = 0
KST2 180838Z 17006KT 09/06 A2999 RMK A01 T00860055  RH  081%=      5-min Rain = 0
KST2 180839Z 18006KT 09/06 A2999 RMK A01 T00870055  RH  081%=      5-min Rain = 0
KST2 180840Z 18005KT 09/06 A2999 RMK A01 T00870055  RH  081%=      5-min Rain = 0
KST2 180841Z 18006KT 09/06 A2999 RMK A01 T00870055  RH  081%=      5-min Rain = 0
KST2 180842Z 18005KT 09/06 A2999 RMK A01 T00870055  RH  081%=      5-min Rain = 0
KST2 180843Z 18005KT 09/06 A2999 RMK A01 T00860055  RH  081%=      5-min Rain = 0
KST2 180844Z 18005KT 09/06 A2999 RMK A01 T00860055  RH  081%=      5-min Rain = 0
KST2 180845Z 18005KT 09/06 A2999 RMK A01 T00860055  RH  081%=      5-min Rain = 0
KST2 180846Z 18006KT 09/06 A2999 RMK A01 T00860055  RH  081%=      5-min Rain = 0
KST2 180847Z 18006KT 09/06 A2998 RMK A01 T00860055  RH  081%=      5-min Rain = 0
KST2 180848Z 18005KT 09/06 A2998 RMK A01 T00860055  RH  081%=      5-min Rain = 0
KST2 180849Z 18006KT 09/06 A2998 RMK A01 T00860055  RH  081%=      5-min Rain = 0
KST2 180850Z 17006KT 09/06 A2998 RMK A01 T00850055  RH  081%=      5-min Rain = 0
KST2 180851Z 18006KT 09/06 A2998 RMK A01 T00850055  RH  081%=      5-min Rain = 0
KST2 180852Z 18006KT 09/06 A2998 RMK A01 T00850055  RH  081%=      5-min Rain = 0
KST2 180853Z 17006KT 09/05 A2998 RMK A01 T00850054  RH  081%=      5-min Rain = 0
KST2 180854Z 18006KT 09/06 A2998 RMK A01 T00850055  RH  081%=      5-min Rain = 0
KST2 180855Z 18006KT 09/05 A2998 RMK A01 T00850054  RH  081%=      5-min Rain = 0
KST2 180856Z 18006KT 09/05 A2998 RMK A01 T00860054  RH  081%=      5-min Rain = 0
KST2 180857Z 17006KT 09/05 A2998 RMK A01 T00860054  RH  081%=      5-min Rain = 0
KST2 180858Z 17006KT 09/05 A2998 RMK A01 T00860054  RH  081%=      5-min Rain = 0
KST2 180859Z 18006KT 09/06 A2998 RMK A01 T00860055  RH  081%=      5-min Rain = 0
KST2 180900Z 18006KT 09/05 A2998 RMK A01 T00850054  RH  081%=      5-min Rain = 0
KST2 180901Z 18006KT 08/05 A2998 RMK A01 T00840054  RH  081%=      5-min Rain = 0
KST2 180902Z 17007KT 08/05 A2998 RMK A01 T00840054  RH  082%=      5-min Rain = 0
KST2 180903Z 17007KT 08/05 A2998 RMK A01 T00840054  RH  082%=      5-min Rain = 0
KST2 180904Z 17007KT 08/06 A2998 RMK A01 T00840055  RH  082%=      5-min Rain = 0
KST2 180905Z 17007KT 08/05 A2998 RMK A01 T00830054  RH  082%=      5-min Rain = 0
KST2 180906Z 17007KT 08/05 A2998 RMK A01 T00830054  RH  082%=      5-min Rain = 0
KST2 180907Z 17007KT 08/05 A2998 RMK A01 T00820054  RH  082%=      5-min Rain = 0
KST2 180908Z 17007KT 08/05 A2998 RMK A01 T00820054  RH  082%=      5-min Rain = 0
KST2 180909Z 17007KT 08/05 A2998 RMK A01 T00820054  RH  083%=      5-min Rain = 0
KST2 180910Z 17007KT 08/05 A2998 RMK A01 T00820054  RH  083%=      5-min Rain = 0
KST2 180911Z 17006KT 08/05 A2998 RMK A01 T00820054  RH  083%=      5-min Rain = 0
KST2 180912Z 17007KT 08/05 A2998 RMK A01 T00810054  RH  083%=      5-min Rain = 0
KST2 180913Z 17007KT 08/05 A2998 RMK A01 T00810054  RH  083%=      5-min Rain = 0
KST2 180914Z 18008KT 08/05 A2998 RMK A01 T00820054  RH  082%=      5-min Rain = 0
KST2 180915Z 17007KT 08/05 A2998 RMK A01 T00830054  RH  082%=      5-min Rain = 0
KST2 180916Z 18007KT 08/05 A2998 RMK A01 T00840054  RH  082%=      5-min Rain = 0
KST2 180917Z 18007KT 08/06 A2998 RMK A01 T00840055  RH  082%=      5-min Rain = 0
KST2 180918Z 18008KT 09/06 A2998 RMK A01 T00850055  RH  081%=      5-min Rain = 0
KST2 180919Z 18008KT 09/06 A2998 RMK A01 T00860055  RH  081%=      5-min Rain = 0
KST2 180920Z 18008KT 09/06 A2998 RMK A01 T00860055  RH  081%=      5-min Rain = 0
KST2 180921Z 18007KT 09/06 A2998 RMK A01 T00860055  RH  081%=      5-min Rain = 0
KST2 180922Z 18008KT 09/06 A2998 RMK A01 T00870056  RH  081%=      5-min Rain = 0
KST2 180923Z 18008KT 09/06 A2997 RMK A01 T00870055  RH  081%=      5-min Rain = 0
KST2 180924Z 18009KT 09/06 A2997 RMK A01 T00870056  RH  081%=      5-min Rain = 0
KST2 180925Z 18008KT 09/06 A2997 RMK A01 T00870055  RH  081%=      5-min Rain = 0
KST2 180926Z 18008KT 09/06 A2997 RMK A01 T00870055  RH  080%=      5-min Rain = 0
KST2 180927Z 18009KT 09/06 A2997 RMK A01 T00880056  RH  080%=      5-min Rain = 0
KST2 180928Z 17008KT 09/06 A2997 RMK A01 T00880056  RH  080%=      5-min Rain = 0
KST2 180929Z 18008KT 09/06 A2997 RMK A01 T00880056  RH  080%=      5-min Rain = 0
KST2 180930Z 18008KT 09/06 A2997 RMK A01 T00880056  RH  080%=      5-min Rain = 0
KST2 180931Z 17008KT 09/06 A2997 RMK A01 T00880056  RH  081%=      5-min Rain = 0
KST2 180932Z 18007KT 09/06 A2997 RMK A01 T00890057  RH  080%=      5-min Rain = 0
KST2 180933Z 17008KT 09/06 A2997 RMK A01 T00880057  RH  081%=      5-min Rain = 0
KST2 180934Z 18008KT 09/06 A2997 RMK A01 T00880057  RH  081%=      5-min Rain = 0
KST2 180935Z 17008KT 09/06 A2997 RMK A01 T00880057  RH  081%=      5-min Rain = 0
KST2 180936Z 17008KT 09/06 A2997 RMK A01 T00890057  RH  081%=      5-min Rain = 0
KST2 180937Z 18008KT 09/06 A2997 RMK A01 T00890057  RH  081%=      5-min Rain = 0
KST2 180938Z 17008KT 09/06 A2997 RMK A01 T00900058  RH  080%=      5-min Rain = 0
KST2 180939Z 17008KT 09/06 A2997 RMK A01 T00900058  RH  080%=      5-min Rain = 0
KST2 180940Z 17009KT 09/06 A2997 RMK A01 T00910058  RH  080%=      5-min Rain = 0
KST2 180941Z 17008KT 09/06 A2997 RMK A01 T00910058  RH  080%=      5-min Rain = 0
KST2 180942Z 18008KT 09/06 A2997 RMK A01 T00920058  RH  080%=      5-min Rain = 0
KST2 180943Z 18008KT 09/06 A2997 RMK A01 T00920058  RH  080%=      5-min Rain = 0
KST2 180944Z 17008KT 09/06 A2997 RMK A01 T00920058  RH  080%=      5-min Rain = 0
KST2 180945Z 18007KT 09/06 A2997 RMK A01 T00920058  RH  080%=      5-min Rain = 0
KST2 180946Z 17007KT 09/06 A2997 RMK A01 T00920058  RH  080%=      5-min Rain = 0
KST2 180947Z 17007KT 09/06 A2996 RMK A01 T00920059  RH  080%=      5-min Rain = 0
KST2 180948Z 17006KT 09/06 A2996 RMK A01 T00910059  RH  080%=      5-min Rain = 0
KST2 180949Z 17007KT 09/06 A2996 RMK A01 T00910058  RH  080%=      5-min Rain = 0
KST2 180950Z 17007KT 09/06 A2996 RMK A01 T00910059  RH  081%=      5-min Rain = 0
KST2 180951Z 17008KT 09/06 A2996 RMK A01 T00910059  RH  080%=      5-min Rain = 0
KST2 180952Z 17009KT 09/06 A2996 RMK A01 T00910059  RH  080%=      5-min Rain = 0
KST2 180953Z 17008KT 09/06 A2996 RMK A01 T00910059  RH  080%=      5-min Rain = 0
KST2 180954Z 17008KT 09/06 A2996 RMK A01 T00910059  RH  080%=      5-min Rain = 0
KST2 180955Z 18008KT 09/06 A2996 RMK A01 T00920059  RH  080%=      5-min Rain = 0
KST2 180956Z 18008KT 09/06 A2996 RMK A01 T00910059  RH  080%=      5-min Rain = 0
KST2 180957Z 17008KT 09/06 A2996 RMK A01 T00910059  RH  080%=      5-min Rain = 0
KST2 180958Z 18008KT 09/06 A2996 RMK A01 T00910059  RH  080%=      5-min Rain = 0
KST2 180959Z 17007KT 09/06 A2996 RMK A01 T00910059  RH  081%=      5-min Rain = 0
KST2 181000Z 18008KT 09/06 A2996 RMK A01 T00910059  RH  080%=      5-min Rain = 0
KST2 181001Z 18007KT 09/06 A2996 RMK A01 T00910059  RH  080%=      5-min Rain = 0
KST2 181002Z 18007KT 09/06 A2996 RMK A01 T00910059  RH  080%=      5-min Rain = 0
KST2 181003Z 18007KT 09/06 A2996 RMK A01 T00910059  RH  080%=      5-min Rain = 0
KST2 181004Z 17007KT 09/06 A2996 RMK A01 T00900059  RH  081%=      5-min Rain = 0
KST2 181005Z 18007KT 09/06 A2996 RMK A01 T00900059  RH  081%=      5-min Rain = 0
KST2 181006Z 17007KT 09/06 A2996 RMK A01 T00900059  RH  081%=      5-min Rain = 0
KST2 181007Z 18008KT 09/06 A2996 RMK A01 T00900059  RH  081%=      5-min Rain = 0
KST2 181008Z 17007KT 09/06 A2996 RMK A01 T00890059  RH  081%=      5-min Rain = 0
KST2 181009Z 17008KT 09/06 A2996 RMK A01 T00900059  RH  081%=      5-min Rain = 0
KST2 181010Z 18008KT 09/06 A2996 RMK A01 T00900059  RH  081%=      5-min Rain = 0
KST2 181011Z 18007KT 09/06 A2996 RMK A01 T00900059  RH  081%=      5-min Rain = 0
KST2 181012Z 18007KT 09/06 A2996 RMK A01 T00900059  RH  081%=      5-min Rain = 0
KST2 181013Z 17007KT 09/06 A2996 RMK A01 T00900059  RH  081%=      5-min Rain = 0
KST2 181014Z 17007KT 09/06 A2996 RMK A01 T00900059  RH  081%=      5-min Rain = 0
KST2 181015Z 17007KT 09/06 A2995 RMK A01 T00890058  RH  081%=      5-min Rain = 0
KST2 181016Z 17006KT 09/06 A2995 RMK A01 T00880058  RH  082%=      5-min Rain = 0
KST2 181017Z 17007KT 09/06 A2995 RMK A01 T00880058  RH  082%=      5-min Rain = 0
KST2 181018Z 17006KT 09/06 A2995 RMK A01 T00870058  RH  082%=      5-min Rain = 0
KST2 181019Z 17007KT 09/06 A2995 RMK A01 T00870058  RH  082%=      5-min Rain = 0
KST2 181020Z 17006KT 09/06 A2995 RMK A01 T00870058  RH  082%=      5-min Rain = 0
KST2 181021Z 17006KT 09/06 A2995 RMK A01 T00860058  RH  082%=      5-min Rain = 0
KST2 181022Z 17006KT 09/06 A2995 RMK A01 T00860058  RH  083%=      5-min Rain = 0
KST2 181023Z 17006KT 09/06 A2995 RMK A01 T00850058  RH  083%=      5-min Rain = 0
KST2 181024Z 17006KT 08/06 A2995 RMK A01 T00840058  RH  083%=      5-min Rain = 0
KST2 181025Z 17006KT 09/06 A2995 RMK A01 T00850058  RH  083%=      5-min Rain = 0
KST2 181026Z 17006KT 08/06 A2995 RMK A01 T00840058  RH  083%=      5-min Rain = 0
KST2 181027Z 17006KT 08/06 A2994 RMK A01 T00840057  RH  083%=      5-min Rain = 0
KST2 181028Z 17006KT 08/06 A2994 RMK A01 T00840058  RH  084%=      5-min Rain = 0
KST2 181029Z 17006KT 08/06 A2994 RMK A01 T00840058  RH  084%=      5-min Rain = 0
KST2 181030Z 17006KT 08/06 A2994 RMK A01 T00840058  RH  084%=      5-min Rain = 0
KST2 181031Z 17007KT 08/06 A2994 RMK A01 T00840058  RH  084%=      5-min Rain = 0
KST2 181032Z 17006KT 08/06 A2994 RMK A01 T00840058  RH  084%=      5-min Rain = 0
KST2 181033Z 17007KT 08/06 A2994 RMK A01 T00830057  RH  084%=      5-min Rain = 0
KST2 181034Z 17007KT 08/06 A2994 RMK A01 T00820057  RH  084%=      5-min Rain = 0
KST2 181035Z 17007KT 08/06 A2994 RMK A01 T00820057  RH  084%=      5-min Rain = 0
KST2 181036Z 17007KT 08/06 A2994 RMK A01 T00820057  RH  084%=      5-min Rain = 0
KST2 181037Z 17007KT 08/06 A2994 RMK A01 T00820057  RH  085%=      5-min Rain = 0
KST2 181038Z 16007KT 08/06 A2994 RMK A01 T00820057  RH  085%=      5-min Rain = 0
KST2 181039Z 16007KT 08/06 A2994 RMK A01 T00810057  RH  085%=      5-min Rain = 0
KST2 181040Z 16007KT 08/06 A2994 RMK A01 T00810057  RH  085%=      5-min Rain = 0
KST2 181041Z 16007KT 08/06 A2994 RMK A01 T00810057  RH  085%=      5-min Rain = 0
KST2 181042Z 16007KT 08/06 A2994 RMK A01 T00810057  RH  085%=      5-min Rain = 0
KST2 181043Z 16006KT 08/06 A2994 RMK A01 T00810057  RH  085%=      5-min Rain = 0
KST2 181044Z 16007KT 08/06 A2994 RMK A01 T00810057  RH  085%=      5-min Rain = 0
KST2 181045Z 16007KT 08/06 A2994 RMK A01 T00800057  RH  085%=      5-min Rain = 0
KST2 181046Z 16007KT 08/06 A2993 RMK A01 T00800057  RH  085%=      5-min Rain = 0
KST2 181047Z 16007KT 08/06 A2993 RMK A01 T00800057  RH  086%=      5-min Rain = 0
KST2 181048Z 16007KT 08/06 A2993 RMK A01 T00800057  RH  086%=      5-min Rain = 0
KST2 181049Z 15007KT 08/06 A2993 RMK A01 T00800057  RH  086%=      5-min Rain = 0
KST2 181050Z 16007KT 08/06 A2993 RMK A01 T00790057  RH  086%=      5-min Rain = 0
KST2 181051Z 15007KT 08/06 A2993 RMK A01 T00800057  RH  085%=      5-min Rain = 0
KST2 181052Z 16007KT 08/06 A2993 RMK A01 T00800057  RH  085%=      5-min Rain = 0
KST2 181053Z 16007KT 08/06 A2993 RMK A01 T00790057  RH  086%=      5-min Rain = 0
KST2 181054Z 16006KT 08/06 A2993 RMK A01 T00800057  RH  086%=      5-min Rain = 0
KST2 181055Z 16005KT 08/06 A2993 RMK A01 T00790056  RH  086%=      5-min Rain = 0
KST2 181056Z 16006KT 08/06 A2993 RMK A01 T00790057  RH  086%=      5-min Rain = 0
KST2 181057Z 16006KT 08/06 A2993 RMK A01 T00790056  RH  086%=      5-min Rain = 0
KST2 181058Z 16006KT 08/06 A2993 RMK A01 T00780056  RH  086%=      5-min Rain = 0
KST2 181059Z 16006KT 08/06 A2993 RMK A01 T00780056  RH  086%=      5-min Rain = 0
KST2 181100Z 16006KT 08/06 A2993 RMK A01 T00780056  RH  086%=      5-min Rain = 0
KST2 181101Z 16006KT 08/06 A2993 RMK A01 T00770056  RH  086%=      5-min Rain = 0
KST2 181102Z 16006KT 08/06 A2993 RMK A01 T00770056  RH  086%=      5-min Rain = 0
KST2 181103Z 16006KT 08/06 A2993 RMK A01 T00770056  RH  087%=      5-min Rain = 0
KST2 181104Z 15006KT 08/06 A2993 RMK A01 T00770056  RH  087%=      5-min Rain = 0
KST2 181105Z 15006KT 08/06 A2992 RMK A01 T00760056  RH  087%=      5-min Rain = 0
KST2 181106Z 15006KT 08/06 A2992 RMK A01 T00760055  RH  087%=      5-min Rain = 0
KST2 181107Z 15007KT 08/06 A2992 RMK A01 T00760055  RH  087%=      5-min Rain = 0
KST2 181108Z 15007KT 08/06 A2992 RMK A01 T00750055  RH  087%=      5-min Rain = 0
KST2 181109Z 15008KT 08/06 A2992 RMK A01 T00750055  RH  087%=      5-min Rain = 0
KST2 181110Z 15008KT 08/06 A2992 RMK A01 T00750055  RH  087%=      5-min Rain = 0
KST2 181111Z 15008KT 07/06 A2992 RMK A01 T00740055  RH  087%=      5-min Rain = 0
KST2 181112Z 15008KT 07/06 A2992 RMK A01 T00740055  RH  088%=      5-min Rain = 0
KST2 181113Z 15007KT 07/06 A2992 RMK A01 T00740055  RH  088%=      5-min Rain = 0
KST2 181114Z 15007KT 07/06 A2992 RMK A01 T00730055  RH  088%=      5-min Rain = 0
KST2 181115Z 15007KT 07/06 A2992 RMK A01 T00730055  RH  088%=      5-min Rain = 0
KST2 181116Z 16007KT 07/06 A2992 RMK A01 T00730055  RH  088%=      5-min Rain = 0
KST2 181117Z 16007KT 07/06 A2992 RMK A01 T00730055  RH  088%=      5-min Rain = 0
KST2 181118Z 15007KT 07/05 A2991 RMK A01 T00730054  RH  088%=      5-min Rain = 0
KST2 181119Z 15007KT 07/06 A2991 RMK A01 T00730055  RH  088%=      5-min Rain = 0
KST2 181120Z 15007KT 07/05 A2991 RMK A01 T00730054  RH  088%=      5-min Rain = 0
KST2 181121Z 15007KT 07/05 A2991 RMK A01 T00720054  RH  088%=      5-min Rain = 0
KST2 181122Z 15007KT 07/06 A2991 RMK A01 T00720055  RH  088%=      5-min Rain = 0
KST2 181123Z 15007KT 07/06 A2991 RMK A01 T00730055  RH  088%=      5-min Rain = 0
KST2 181124Z 15006KT 07/05 A2991 RMK A01 T00730054  RH  088%=      5-min Rain = 0
KST2 181125Z 15006KT 07/05 A2991 RMK A01 T00730054  RH  088%=      5-min Rain = 0
KST2 181126Z 15006KT 07/06 A2991 RMK A01 T00730055  RH  088%=      5-min Rain = 0
KST2 181127Z 15007KT 07/06 A299 RMK A01 T00730055  RH  088%=      5-min Rain = 0
KST2 181128Z 15006KT 07/06 A299 RMK A01 T00730055  RH  088%=      5-min Rain = 0
KST2 181129Z 15006KT 07/06 A299 RMK A01 T00730055  RH  088%=      5-min Rain = 0
KST2 181130Z 15006KT 07/06 A299 RMK A01 T00730055  RH  088%=      5-min Rain = 0
KST2 181131Z 15005KT 07/05 A299 RMK A01 T00730054  RH  088%=      5-min Rain = 0
KST2 181132Z 15005KT 07/06 A299 RMK A01 T00730055  RH  088%=      5-min Rain = 0
KST2 181133Z 15005KT 07/06 A299 RMK A01 T00730055  RH  088%=      5-min Rain = 0
KST2 181134Z 15005KT 07/06 A299 RMK A01 T00730055  RH  088%=      5-min Rain = 0
KST2 181135Z 16005KT 07/05 A299 RMK A01 T00730054  RH  088%=      5-min Rain = 0
KST2 181136Z 16005KT 07/06 A299 RMK A01 T00740055  RH  088%=      5-min Rain = 0
KST2 181137Z 16006KT 07/06 A299 RMK A01 T00740055  RH  088%=      5-min Rain = 0
KST2 181138Z 16006KT 07/06 A299 RMK A01 T00740055  RH  087%=      5-min Rain = 0
KST2 181139Z 16007KT 07/06 A299 RMK A01 T00740055  RH  087%=      5-min Rain = 0
KST2 181140Z 16006KT 07/05 A299 RMK A01 T00740054  RH  087%=      5-min Rain = 0
KST2 181141Z 16007KT 07/05 A299 RMK A01 T00740054  RH  087%=      5-min Rain = 0
KST2 181142Z 16007KT 07/05 A299 RMK A01 T00740054  RH  087%=      5-min Rain = 0
KST2 181143Z 16007KT 08/06 A2989 RMK A01 T00750055  RH  087%=      5-min Rain = 0
KST2 181144Z 16007KT 08/05 A2989 RMK A01 T00750054  RH  087%=      5-min Rain = 0
KST2 181145Z 16007KT 08/05 A2989 RMK A01 T00750054  RH  086%=      5-min Rain = 0
KST2 181146Z 17007KT 08/05 A2989 RMK A01 T00760054  RH  086%=      5-min Rain = 0
KST2 181147Z 17008KT 08/05 A2989 RMK A01 T00760054  RH  086%=      5-min Rain = 0
KST2 181148Z 16008KT 08/05 A2989 RMK A01 T00760054  RH  086%=      5-min Rain = 0
KST2 181149Z 17007KT 08/05 A2989 RMK A01 T00760054  RH  086%=      5-min Rain = 0
KST2 181150Z 16008KT 08/05 A2989 RMK A01 T00770054  RH  086%=      5-min Rain = 0
KST2 181151Z 17008KT 08/05 A2989 RMK A01 T00770054  RH  085%=      5-min Rain = 0
KST2 181152Z 17007KT 08/05 A2989 RMK A01 T00770054  RH  085%=      5-min Rain = 0
KST2 181153Z 17007KT 08/05 A2989 RMK A01 T00780054  RH  085%=      5-min Rain = 0
KST2 181154Z 17008KT 08/05 A2989 RMK A01 T00770054  RH  085%=      5-min Rain = 0
KST2 181155Z 17007KT 08/05 A2989 RMK A01 T00770054  RH  085%=      5-min Rain = 0
KST2 181156Z 17007KT 08/05 A2989 RMK A01 T00770053  RH  085%=      5-min Rain = 0
KST2 181157Z 17007KT 08/05 A2989 RMK A01 T00780054  RH  085%=      5-min Rain = 0
KST2 181158Z 17007KT 08/05 A2989 RMK A01 T00780053  RH  085%=      5-min Rain = 0
KST2 181159Z 17008KT 08/05 A2989 RMK A01 T00780053  RH  085%=      5-min Rain = 0
KST2 181200Z 17007KT 08/05 A2989 RMK A01 T00780053  RH  084%=      5-min Rain = 0
KST2 181201Z 17008KT 08/05 A2989 RMK A01 T00790053  RH  084%=      5-min Rain = 0
KST2 181202Z 17008KT 08/05 A2989 RMK A01 T00790053  RH  084%=      5-min Rain = 0
KST2 181203Z 17008KT 08/05 A2989 RMK A01 T00800054  RH  084%=      5-min Rain = 0
KST2 181204Z 17009KT 08/05 A2989 RMK A01 T00800053  RH  083%=      5-min Rain = 0
KST2 181205Z 17009KT 08/05 A2989 RMK A01 T00810053  RH  083%=      5-min Rain = 0
KST2 181206Z 17009KT 08/05 A2989 RMK A01 T00810053  RH  083%=      5-min Rain = 0
KST2 181207Z 17008KT 08/05 A2989 RMK A01 T00810053  RH  083%=      5-min Rain = 0
KST2 181208Z 17008KT 08/05 A2989 RMK A01 T00810053  RH  083%=      5-min Rain = 0
KST2 181209Z 17009KT 08/05 A2989 RMK A01 T00810053  RH  083%=      5-min Rain = 0
KST2 181210Z 17008KT 08/05 A2989 RMK A01 T00810053  RH  083%=      5-min Rain = 0
KST2 181211Z 17009KT 08/05 A2989 RMK A01 T00810053  RH  083%=      5-min Rain = 0
KST2 181212Z 17009KT 08/05 A2989 RMK A01 T00810053  RH  083%=      5-min Rain = 0
KST2 181213Z 17008KT 08/05 A2989 RMK A01 T00800053  RH  083%=      5-min Rain = 0
KST2 181214Z 17009KT 08/05 A2989 RMK A01 T00800053  RH  083%=      5-min Rain = 0
KST2 181215Z 17008KT 08/05 A2989 RMK A01 T00800053  RH  083%=      5-min Rain = 0
KST2 181216Z 17009KT 08/05 A2989 RMK A01 T00800053  RH  083%=      5-min Rain = 0
KST2 181217Z 17008KT 08/05 A2989 RMK A01 T00790053  RH  083%=      5-min Rain = 0
KST2 181218Z 17008KT 08/05 A2988 RMK A01 T00790053  RH  083%=      5-min Rain = 0
KST2 181219Z 17009KT 08/05 A2988 RMK A01 T00790052  RH  083%=      5-min Rain = 0
KST2 181220Z 17008KT 08/05 A2988 RMK A01 T00790052  RH  083%=      5-min Rain = 0
KST2 181221Z 17008KT 08/05 A2988 RMK A01 T00780052  RH  084%=      5-min Rain = 0
KST2 181222Z 17008KT 08/05 A2988 RMK A01 T00780052  RH  084%=      5-min Rain = 0
KST2 181223Z 17008KT 08/05 A2988 RMK A01 T00780052  RH  084%=      5-min Rain = 0
KST2 181224Z 17008KT 08/05 A2988 RMK A01 T00780052  RH  084%=      5-min Rain = 0
KST2 181225Z 17007KT 08/05 A2988 RMK A01 T00770052  RH  084%=      5-min Rain = 0
KST2 181226Z 17008KT 08/05 A2988 RMK A01 T00770052  RH  084%=      5-min Rain = 0
KST2 181227Z 17008KT 08/05 A2988 RMK A01 T00770052  RH  084%=      5-min Rain = 0
KST2 181228Z 17008KT 08/05 A2988 RMK A01 T00780052  RH  084%=      5-min Rain = 0
KST2 181229Z 17008KT 08/05 A2988 RMK A01 T00770051  RH  084%=      5-min Rain = 0
KST2 181230Z 17008KT 08/05 A2988 RMK A01 T00780052  RH  084%=      5-min Rain = 0
KST2 181231Z 17008KT 08/05 A2988 RMK A01 T00780052  RH  083%=      5-min Rain = 0
KST2 181232Z 17008KT 08/05 A2988 RMK A01 T00780052  RH  083%=      5-min Rain = 0
KST2 181233Z 17008KT 08/05 A2988 RMK A01 T00770051  RH  084%=      5-min Rain = 0
KST2 181234Z 17008KT 08/05 A2988 RMK A01 T00770051  RH  084%=      5-min Rain = 0
KST2 181235Z 17007KT 08/05 A2988 RMK A01 T00770051  RH  084%=      5-min Rain = 0
KST2 181236Z 18007KT 08/05 A2988 RMK A01 T00770051  RH  084%=      5-min Rain = 0
KST2 181237Z 18007KT 08/05 A2988 RMK A01 T00770051  RH  084%=      5-min Rain = 0
KST2 181238Z 17008KT 08/05 A2988 RMK A01 T00770051  RH  084%=      5-min Rain = 0
KST2 181239Z 17007KT 08/05 A2988 RMK A01 T00770051  RH  084%=      5-min Rain = 0
KST2 181240Z 18007KT 08/05 A2988 RMK A01 T00770051  RH  083%=      5-min Rain = 0
KST2 181241Z 18007KT 08/05 A2988 RMK A01 T00770051  RH  083%=      5-min Rain = 0
KST2 181242Z 18007KT 08/05 A2988 RMK A01 T00770051  RH  083%=      5-min Rain = 0
KST2 181243Z 17007KT 08/05 A2988 RMK A01 T00770051  RH  083%=      5-min Rain = 0
KST2 181244Z 17007KT 08/05 A2988 RMK A01 T00760051  RH  084%=      5-min Rain = 0
KST2 181245Z 17007KT 08/05 A2988 RMK A01 T00760051  RH  084%=      5-min Rain = 0
KST2 181246Z 17007KT 08/05 A2988 RMK A01 T00760051  RH  084%=      5-min Rain = 0
KST2 181247Z 17007KT 08/05 A2988 RMK A01 T00770051  RH  084%=      5-min Rain = 0
KST2 181248Z 17007KT 08/05 A2988 RMK A01 T00760050  RH  084%=      5-min Rain = 0
KST2 181249Z 17007KT 08/05 A2987 RMK A01 T00760050  RH  084%=      5-min Rain = 0
KST2 181250Z 17008KT 08/05 A2987 RMK A01 T00760050  RH  084%=      5-min Rain = 0
KST2 181251Z 18007KT 08/05 A2988 RMK A01 T00750050  RH  084%=      5-min Rain = 0
KST2 181252Z 18007KT 08/05 A2988 RMK A01 T00750050  RH  084%=      5-min Rain = 0
KST2 181253Z 18007KT 08/05 A2988 RMK A01 T00750050  RH  084%=      5-min Rain = 0
KST2 181254Z 17007KT 08/05 A2988 RMK A01 T00750050  RH  084%=      5-min Rain = 0
KST2 181255Z 18007KT 08/05 A2988 RMK A01 T00750050  RH  084%=      5-min Rain = 0
KST2 181256Z 18007KT 08/05 A2987 RMK A01 T00750050  RH  084%=      5-min Rain = 0
KST2 181257Z 18006KT 08/05 A2987 RMK A01 T00750050  RH  084%=      5-min Rain = 0
KST2 181258Z 18006KT 07/05 A2987 RMK A01 T00740050  RH  084%=      5-min Rain = 0
KST2 181259Z 17006KT 07/05 A2987 RMK A01 T00740050  RH  085%=      5-min Rain = 0
KST2 181300Z 18006KT 07/05 A2987 RMK A01 T00730049  RH  085%=      5-min Rain = 0
KST2 181301Z 18006KT 07/05 A2987 RMK A01 T00730049  RH  085%=      5-min Rain = 0
KST2 181302Z 17006KT 07/05 A2987 RMK A01 T00730049  RH  085%=      5-min Rain = 0
KST2 181303Z 18007KT 07/05 A2987 RMK A01 T00720049  RH  085%=      5-min Rain = 0
KST2 181304Z 18006KT 07/05 A2987 RMK A01 T00720049  RH  085%=      5-min Rain = 0
KST2 181305Z 18006KT 07/05 A2987 RMK A01 T00720049  RH  085%=      5-min Rain = 0
KST2 181306Z 18005KT 07/05 A2987 RMK A01 T00720049  RH  085%=      5-min Rain = 0
KST2 181307Z 18006KT 07/05 A2987 RMK A01 T00720049  RH  085%=      5-min Rain = 0
KST2 181308Z 18006KT 07/05 A2987 RMK A01 T00720049  RH  085%=      5-min Rain = 0
KST2 181309Z 18006KT 07/05 A2987 RMK A01 T00720049  RH  085%=      5-min Rain = 0
KST2 181310Z 18006KT 07/05 A2987 RMK A01 T00720049  RH  085%=      5-min Rain = 0
KST2 181311Z 18007KT 07/05 A2987 RMK A01 T00720049  RH  085%=      5-min Rain = 0
KST2 181312Z 18007KT 07/05 A2987 RMK A01 T00720049  RH  085%=      5-min Rain = 0
KST2 181313Z 18007KT 07/05 A2987 RMK A01 T00720049  RH  085%=      5-min Rain = 0
KST2 181314Z 18007KT 07/05 A2987 RMK A01 T00720049  RH  085%=      5-min Rain = 0
KST2 181315Z 18007KT 07/05 A2987 RMK A01 T00720049  RH  085%=      5-min Rain = 0
KST2 181316Z 18006KT 07/05 A2987 RMK A01 T00720049  RH  085%=      5-min Rain = 0
KST2 181317Z 18006KT 07/05 A2987 RMK A01 T00720049  RH  085%=      5-min Rain = 0
KST2 181318Z 18007KT 07/05 A2987 RMK A01 T00720049  RH  085%=      5-min Rain = 0
KST2 181319Z 18007KT 07/05 A2987 RMK A01 T00720049  RH  085%=      5-min Rain = 0
KST2 181320Z 18007KT 07/05 A2987 RMK A01 T00720049  RH  085%=      5-min Rain = 0
KST2 181321Z 18007KT 07/05 A2987 RMK A01 T00720049  RH  085%=      5-min Rain = 0
KST2 181322Z 19007KT 07/05 A2987 RMK A01 T00730049  RH  085%=      5-min Rain = 0
KST2 181323Z 18007KT 07/05 A2987 RMK A01 T00730049  RH  085%=      5-min Rain = 0
KST2 181324Z 18007KT 07/05 A2987 RMK A01 T00730049  RH  084%=      5-min Rain = 0
KST2 181325Z 18007KT 07/05 A2986 RMK A01 T00730049  RH  084%=      5-min Rain = 0
KST2 181326Z 18008KT 07/05 A2986 RMK A01 T00730049  RH  084%=      5-min Rain = 0
KST2 181327Z 18007KT 07/05 A2986 RMK A01 T00730049  RH  084%=      5-min Rain = 0
KST2 181328Z 18007KT 07/05 A2986 RMK A01 T00730049  RH  084%=      5-min Rain = 0
KST2 181329Z 18007KT 07/05 A2986 RMK A01 T00730049  RH  084%=      5-min Rain = 0
KST2 181330Z 18007KT 07/05 A2986 RMK A01 T00730049  RH  084%=      5-min Rain = 0
KST2 181331Z 18008KT 07/05 A2986 RMK A01 T00730049  RH  084%=      5-min Rain = 0
KST2 181332Z 18008KT 07/05 A2986 RMK A01 T00730048  RH  084%=      5-min Rain = 0
KST2 181333Z 18008KT 07/05 A2986 RMK A01 T00730049  RH  084%=      5-min Rain = 0
KST2 181334Z 18008KT 07/05 A2986 RMK A01 T00730049  RH  084%=      5-min Rain = 0
KST2 181335Z 18007KT 07/05 A2986 RMK A01 T00730049  RH  084%=      5-min Rain = 0
KST2 181336Z 18007KT 07/05 A2986 RMK A01 T00740049  RH  084%=      5-min Rain = 0
KST2 181337Z 18007KT 08/05 A2986 RMK A01 T00750049  RH  084%=      5-min Rain = 0
KST2 181338Z 18007KT 08/05 A2986 RMK A01 T00750049  RH  084%=      5-min Rain = 0
KST2 181339Z 18007KT 08/05 A2986 RMK A01 T00750049  RH  084%=      5-min Rain = 0
KST2 181340Z 18008KT 08/05 A2986 RMK A01 T00750049  RH  083%=      5-min Rain = 0
KST2 181341Z 18008KT 08/05 A2986 RMK A01 T00760049  RH  083%=      5-min Rain = 0
KST2 181342Z 18008KT 08/05 A2986 RMK A01 T00770049  RH  083%=      5-min Rain = 0
KST2 181343Z 18008KT 08/05 A2986 RMK A01 T00770049  RH  082%=      5-min Rain = 0
KST2 181344Z 18008KT 08/05 A2986 RMK A01 T00780050  RH  082%=      5-min Rain = 0
KST2 181345Z 18008KT 08/05 A2986 RMK A01 T00780049  RH  082%=      5-min Rain = 0
KST2 181346Z 18008KT 08/05 A2986 RMK A01 T00780050  RH  082%=      5-min Rain = 0
KST2 181347Z 18008KT 08/05 A2986 RMK A01 T00780050  RH  082%=      5-min Rain = 0
KST2 181348Z 18008KT 08/05 A2985 RMK A01 T00780050  RH  082%=      5-min Rain = 0
KST2 181349Z 18008KT 08/05 A2985 RMK A01 T00790050  RH  082%=      5-min Rain = 0
KST2 181350Z 18008KT 08/05 A2985 RMK A01 T00790050  RH  082%=      5-min Rain = 0
KST2 181351Z 18009KT 08/05 A2985 RMK A01 T00790050  RH  082%=      5-min Rain = 0
KST2 181352Z 18009KT 08/05 A2985 RMK A01 T00790050  RH  082%=      5-min Rain = 0
KST2 181353Z 18009KT 08/05 A2985 RMK A01 T00800050  RH  081%=      5-min Rain = 0
KST2 181354Z 18009KT 08/05 A2985 RMK A01 T00800050  RH  081%=      5-min Rain = 0
KST2 181355Z 18009KT 08/05 A2985 RMK A01 T00810050  RH  081%=      5-min Rain = 0
KST2 181356Z 18009KT 08/05 A2985 RMK A01 T00810050  RH  081%=      5-min Rain = 0
KST2 181357Z 18010KT 08/05 A2985 RMK A01 T00810050  RH  081%=      5-min Rain = 0
KST2 181358Z 18009KT 08/05 A2985 RMK A01 T00820050  RH  081%=      5-min Rain = 0
KST2 181359Z 18009KT 08/05 A2985 RMK A01 T00820050  RH  080%=      5-min Rain = 0
KST2 181400Z 18009KT 08/05 A2985 RMK A01 T00820050  RH  080%=      5-min Rain = 0
KST2 181401Z 18009KT 08/05 A2985 RMK A01 T00820050  RH  080%=      5-min Rain = 0
KST2 181402Z 18009KT 08/05 A2984 RMK A01 T00820050  RH  080%=      5-min Rain = 0
KST2 181403Z 18009KT 08/05 A2984 RMK A01 T00820050  RH  080%=      5-min Rain = 0
KST2 181404Z 18010KT 08/05 A2984 RMK A01 T00820050  RH  080%=      5-min Rain = 0
KST2 181405Z 18010KT 08/05 A2984 RMK A01 T00830050  RH  080%=      5-min Rain = 0
KST2 181406Z 18010KT 08/05 A2984 RMK A01 T00840051  RH  079%=      5-min Rain = 0
KST2 181407Z 18010KT 09/05 A2984 RMK A01 T00850051  RH  079%=      5-min Rain = 0
KST2 181408Z 19010KT 09/05 A2984 RMK A01 T00850051  RH  079%=      5-min Rain = 0
KST2 181409Z 19010KT 09/05 A2984 RMK A01 T00850051  RH  079%=      5-min Rain = 0
KST2 181410Z 19010KT 09/05 A2985 RMK A01 T00850051  RH  079%=      5-min Rain = 0
KST2 181411Z 19009KT 09/05 A2985 RMK A01 T00850051  RH  079%=      5-min Rain = 0
KST2 181412Z 18009KT 09/05 A2985 RMK A01 T00850051  RH  079%=      5-min Rain = 0
KST2 181413Z 19009KT 09/05 A2985 RMK A01 T00850051  RH  079%=      5-min Rain = 0
KST2 181414Z 19010KT 09/05 A2985 RMK A01 T00850051  RH  079%=      5-min Rain = 0
KST2 181415Z 19009KT 09/05 A2984 RMK A01 T00850051  RH  079%=      5-min Rain = 0
KST2 181416Z 18009KT 09/05 A2984 RMK A01 T00850051  RH  079%=      5-min Rain = 0
KST2 181417Z 19010KT 09/05 A2984 RMK A01 T00850051  RH  079%=      5-min Rain = 0
KST2 181418Z 19009KT 09/05 A2984 RMK A01 T00850051  RH  079%=      5-min Rain = 0
KST2 181419Z 19009KT 09/05 A2984 RMK A01 T00850051  RH  079%=      5-min Rain = 0
KST2 181420Z 19010KT 09/05 A2984 RMK A01 T00850051  RH  079%=      5-min Rain = 0
KST2 181421Z 18009KT 09/05 A2984 RMK A01 T00860051  RH  079%=      5-min Rain = 0
KST2 181422Z 18010KT 09/05 A2984 RMK A01 T00860051  RH  079%=      5-min Rain = 0
KST2 181423Z 18009KT 09/05 A2984 RMK A01 T00870052  RH  079%=      5-min Rain = 0
KST2 181424Z 18008KT 09/05 A2984 RMK A01 T00870052  RH  078%=      5-min Rain = 0
KST2 181425Z 18010KT 09/05 A2984 RMK A01 T00880052  RH  078%=      5-min Rain = 0
KST2 181426Z 18010KT 09/05 A2984 RMK A01 T00880052  RH  078%=      5-min Rain = 0
KST2 181427Z 18010KT 09/05 A2984 RMK A01 T00890052  RH  078%=      5-min Rain = 0
KST2 181428Z 19010KT 09/05 A2984 RMK A01 T00900053  RH  077%=      5-min Rain = 0
KST2 181429Z 19009KT 09/05 A2984 RMK A01 T00910053  RH  077%=      5-min Rain = 0
KST2 181430Z 19009KT 09/05 A2984 RMK A01 T00920053  RH  077%=      5-min Rain = 0
KST2 181431Z 19009KT 09/05 A2984 RMK A01 T00920053  RH  077%=      5-min Rain = 0
KST2 181432Z 19010KT 09/05 A2984 RMK A01 T00920053  RH  077%=      5-min Rain = 0
KST2 181433Z 19009KT 09/05 A2984 RMK A01 T00920053  RH  077%=      5-min Rain = 0
KST2 181434Z 19009KT 09/05 A2984 RMK A01 T00920053  RH  077%=      5-min Rain = 0
KST2 181435Z 19009KT 09/05 A2984 RMK A01 T00930054  RH  077%=      5-min Rain = 0
KST2 181436Z 20009KT 09/05 A2984 RMK A01 T00930054  RH  077%=      5-min Rain = 0
KST2 181437Z 19008KT 09/06 A2984 RMK A01 T00930055  RH  077%=      5-min Rain = 0
KST2 181438Z 20009KT 09/06 A2984 RMK A01 T00930055  RH  077%=      5-min Rain = 0
KST2 181439Z 20009KT 09/06 A2984 RMK A01 T00940055  RH  077%=      5-min Rain = 0
KST2 181440Z 19009KT 09/06 A2984 RMK A01 T00940056  RH  077%=      5-min Rain = 0
KST2 181441Z 19008KT 10/06 A2984 RMK A01 T00950056  RH  077%=      5-min Rain = 0
KST2 181442Z 20008KT 10/06 A2984 RMK A01 T00960056  RH  076%=      5-min Rain = 0
KST2 181443Z 20007KT 10/06 A2984 RMK A01 T00960056  RH  076%=      5-min Rain = 0
KST2 181444Z 20008KT 10/06 A2984 RMK A01 T00970057  RH  076%=      5-min Rain = 0
KST2 181445Z 20008KT 10/06 A2984 RMK A01 T00980057  RH  076%=      5-min Rain = 0
KST2 181446Z 20008KT 10/06 A2984 RMK A01 T00990057  RH  075%=      5-min Rain = 0
KST2 181447Z 20009KT 10/06 A2984 RMK A01 T00990057  RH  075%=      5-min Rain = 0
KST2 181448Z 20009KT 10/06 A2984 RMK A01 T01000058  RH  075%=      5-min Rain = 0
KST2 181449Z 20009KT 10/06 A2984 RMK A01 T01010058  RH  075%=      5-min Rain = 0
KST2 181450Z 20009KT 10/06 A2984 RMK A01 T01010058  RH  075%=      5-min Rain = 0
KST2 181451Z 20010KT 10/06 A2984 RMK A01 T01010058  RH  075%=      5-min Rain = 0
KST2 181452Z 20009KT 10/06 A2984 RMK A01 T01020059  RH  075%=      5-min Rain = 0
KST2 181453Z 20009KT 10/06 A2984 RMK A01 T01020059  RH  075%=      5-min Rain = 0
KST2 181454Z 20009KT 10/06 A2984 RMK A01 T01020060  RH  075%=      5-min Rain = 0
KST2 181455Z 20008KT 10/06 A2984 RMK A01 T01030059  RH  075%=      5-min Rain = 0
KST2 181456Z 19008KT 10/06 A2984 RMK A01 T01030060  RH  075%=      5-min Rain = 0
KST2 181457Z 19009KT 10/06 A2984 RMK A01 T01040060  RH  074%=      5-min Rain = 0
KST2 181458Z 19009KT 10/06 A2984 RMK A01 T01040060  RH  074%=      5-min Rain = 0
KST2 181459Z 19008KT 11/06 A2984 RMK A01 T01050061  RH  074%=      5-min Rain = 0
KST2 181500Z 19008KT 11/06 A2983 RMK A01 T01050061  RH  074%=      5-min Rain = 0
KST2 181501Z 19009KT 11/06 A2983 RMK A01 T01060062  RH  074%=      5-min Rain = 0
KST2 181502Z 19010KT 11/06 A2983 RMK A01 T01070062  RH  074%=      5-min Rain = 0
KST2 181503Z 19010KT 11/06 A2983 RMK A01 T01090063  RH  073%=      5-min Rain = 0
KST2 181504Z 19011KT 11/06 A2983 RMK A01 T01110062  RH  072%=      5-min Rain = 0
KST2 181505Z 19012KT 11/06 A2983 RMK A01 T01130063  RH  071%=      5-min Rain = 0
KST2 181506Z 19013KT 12/06 A2983 RMK A01 T01150062  RH  070%=      5-min Rain = 0
KST2 181507Z 19012KT 12/06 A2983 RMK A01 T01170061  RH  069%=      5-min Rain = 0
KST2 181508Z 19012KT 12/06 A2983 RMK A01 T01180061  RH  068%=      5-min Rain = 0
KST2 181509Z 19012KT 12/06 A2983 RMK A01 T01190061  RH  068%=      5-min Rain = 0
KST2 181510Z 19011KT 12/06 A2983 RMK A01 T01200062  RH  067%=      5-min Rain = 0
KST2 181511Z 18013KT 12/06 A2983 RMK A01 T01210062  RH  067%=      5-min Rain = 0
KST2 181512Z 19013KT 12/06 A2983 RMK A01 T01210061  RH  066%=      5-min Rain = 0
KST2 181513Z 19013KT 12/06 A2983 RMK A01 T01220061  RH  066%=      5-min Rain = 0
KST2 181514Z 19012KT 12/06 A2983 RMK A01 T01230061  RH  066%=      5-min Rain = 0
KST2 181515Z 19012KT 12/06 A2983 RMK A01 T01240061  RH  066%=      5-min Rain = 0
KST2 181516Z 19012KT 12/06 A2983 RMK A01 T01240061  RH  065%=      5-min Rain = 0
KST2 181517Z 19012KT 13/06 A2983 RMK A01 T01250062  RH  065%=      5-min Rain = 0
KST2 181518Z 19012KT 13/06 A2983 RMK A01 T01250061  RH  065%=      5-min Rain = 0
KST2 181519Z 19011KT 13/06 A2983 RMK A01 T01260063  RH  066%=      5-min Rain = 0
KST2 181520Z 20011KT 13/06 A2983 RMK A01 T01260064  RH  066%=      5-min Rain = 0
KST2 181521Z 19011KT 13/06 A2983 RMK A01 T01270063  RH  065%=      5-min Rain = 0
KST2 181522Z 19011KT 13/06 A2983 RMK A01 T01270064  RH  065%=      5-min Rain = 0
KST2 181523Z 20012KT 13/06 A2983 RMK A01 T01280064  RH  065%=      5-min Rain = 0
KST2 181524Z 19012KT 13/07 A2983 RMK A01 T01290065  RH  065%=      5-min Rain = 0
KST2 181525Z 19012KT 13/07 A2983 RMK A01 T01290065  RH  065%=      5-min Rain = 0
KST2 181526Z 19012KT 13/06 A2983 RMK A01 T01290064  RH  064%=      5-min Rain = 0
KST2 181527Z 19011KT 13/06 A2983 RMK A01 T01290064  RH  065%=      5-min Rain = 0
KST2 181528Z 19012KT 13/07 A2983 RMK A01 T01290065  RH  065%=      5-min Rain = 0
KST2 181529Z 19013KT 13/06 A2983 RMK A01 T01290064  RH  065%=      5-min Rain = 0
KST2 181530Z 19013KT 13/06 A2983 RMK A01 T01290064  RH  065%=      5-min Rain = 0
KST2 181531Z 20010KT 13/06 A2983 RMK A01 T01290064  RH  065%=      5-min Rain = 0
KST2 181532Z 19011KT 13/07 A2983 RMK A01 T01290065  RH  065%=      5-min Rain = 0
KST2 181533Z 20011KT 13/07 A2983 RMK A01 T01290066  RH  065%=      5-min Rain = 0
KST2 181534Z 19010KT 13/07 A2983 RMK A01 T01290066  RH  066%=      5-min Rain = 0
KST2 181535Z 20011KT 13/07 A2983 RMK A01 T01290066  RH  066%=      5-min Rain = 0
KST2 181536Z 19010KT 13/07 A2983 RMK A01 T01290066  RH  065%=      5-min Rain = 0
KST2 181537Z 19012KT 13/07 A2983 RMK A01 T01290066  RH  065%=      5-min Rain = 0
KST2 181538Z 19011KT 13/07 A2983 RMK A01 T01290065  RH  065%=      5-min Rain = 0
KST2 181539Z 19010KT 13/07 A2983 RMK A01 T01300066  RH  065%=      5-min Rain = 0
KST2 181540Z 19010KT 13/07 A2983 RMK A01 T01310067  RH  065%=      5-min Rain = 0
KST2 181541Z 20009KT 13/07 A2983 RMK A01 T01320068  RH  065%=      5-min Rain = 0
KST2 181542Z 20009KT 13/07 A2983 RMK A01 T01340069  RH  065%=      5-min Rain = 0
KST2 181543Z 20009KT 14/07 A2983 RMK A01 T01350070  RH  065%=      5-min Rain = 0
KST2 181544Z 20009KT 14/07 A2983 RMK A01 T01360071  RH  065%=      5-min Rain = 0
KST2 181545Z 20010KT 14/07 A2983 RMK A01 T01370070  RH  064%=      5-min Rain = 0
KST2 181546Z 20010KT 14/07 A2983 RMK A01 T01380071  RH  064%=      5-min Rain = 0
KST2 181547Z 20010KT 14/07 A2983 RMK A01 T01400071  RH  063%=      5-min Rain = 0
KST2 181548Z 20012KT 14/07 A2983 RMK A01 T01410071  RH  063%=      5-min Rain = 0
KST2 181549Z 20011KT 14/07 A2983 RMK A01 T01430071  RH  062%=      5-min Rain = 0
KST2 181550Z 20013KT 14/07 A2983 RMK A01 T01440071  RH  061%=      5-min Rain = 0
KST2 181551Z 20011KT 15/07 A2983 RMK A01 T01460070  RH  061%=      5-min Rain = 0
KST2 181552Z 20011KT 15/07 A2983 RMK A01 T01470072  RH  061%=      5-min Rain = 0
KST2 181553Z 20013KT 15/07 A2983 RMK A01 T01470071  RH  060%=      5-min Rain = 0
KST2 181554Z 21013KT 15/07 A2983 RMK A01 T01480071  RH  060%=      5-min Rain = 0
KST2 181555Z 20014KT 15/07 A2983 RMK A01 T01490072  RH  060%=      5-min Rain = 0
KST2 181556Z 20015KT 15/07 A2982 RMK A01 T01500071  RH  059%=      5-min Rain = 0
KST2 181557Z 20013KT 15/07 A2983 RMK A01 T01510072  RH  059%=      5-min Rain = 0
KST2 181558Z 21014KT 15/07 A2983 RMK A01 T01520073  RH  059%=      5-min Rain = 0
KST2 181559Z 21014KT 15/07 A2983 RMK A01 T01530072  RH  059%=      5-min Rain = 0
KST2 181600Z 20013KT 15/07 A2983 RMK A01 T01540073  RH  058%=      5-min Rain = 0
KST2 181601Z 21015KT 16/08 A2983 RMK A01 T01550075  RH  059%=      5-min Rain = 0
KST2 181602Z 21014KT 16/07 A2983 RMK A01 T01560074  RH  058%=      5-min Rain = 0
KST2 181603Z 21013KT 16/07 A2983 RMK A01 T01560074  RH  058%=      5-min Rain = 0
KST2 181604Z 21013KT 16/08 A2983 RMK A01 T01570077  RH  059%=      5-min Rain = 0
KST2 181605Z 21014KT 16/08 A2983 RMK A01 T01580077  RH  059%=      5-min Rain = 0
KST2 181606Z 20013KT 16/08 A2983 RMK A01 T01590076  RH  058%=      5-min Rain = 0
KST2 181607Z 21014KT 16/08 A2983 RMK A01 T01590076  RH  058%=      5-min Rain = 0
KST2 181608Z 21013KT 16/08 A2983 RMK A01 T01600077  RH  058%=      5-min Rain = 0
KST2 181609Z 20013KT 16/08 A2983 RMK A01 T01620081  RH  059%=      5-min Rain = 0
KST2 181610Z 20013KT 16/08 A2983 RMK A01 T01620079  RH  058%=      5-min Rain = 0
KST2 181611Z 20012KT 16/08 A2983 RMK A01 T01620081  RH  059%=      5-min Rain = 0
KST2 181612Z 20015KT 16/08 A2982 RMK A01 T01620080  RH  058%=      5-min Rain = 0
KST2 181613Z 20015KT 16/08 A2982 RMK A01 T01620077  RH  057%=      5-min Rain = 0
KST2 181614Z 20013KT 16/08 A2982 RMK A01 T01620078  RH  058%=      5-min Rain = 0
KST2 181615Z 20016KT 16/08 A2982 RMK A01 T01620079  RH  058%=      5-min Rain = 0
KST2 181616Z 20015KT 16/08 A2982 RMK A01 T01620075  RH  056%=      5-min Rain = 0
KST2 181617Z 21014G19KT 16/08 A2982 RMK A01 T01620077  RH  057%=      5-min Rain = 0
KST2 181618Z 20014KT 16/08 A2982 RMK A01 T01620078  RH  058%=      5-min Rain = 0
KST2 181619Z 21015KT 16/08 A2982 RMK A01 T01610075  RH  057%=      5-min Rain = 0
KST2 181620Z 20014KT 16/08 A2982 RMK A01 T01610075  RH  057%=      5-min Rain = 0
KST2 181621Z 21012KT 16/08 A2982 RMK A01 T01610077  RH  057%=      5-min Rain = 0
KST2 181622Z 21015KT 16/08 A2982 RMK A01 T01610077  RH  058%=      5-min Rain = 0
KST2 181623Z 21014KT 16/08 A2982 RMK A01 T01610075  RH  057%=      5-min Rain = 0
KST2 181624Z 21012KT 16/08 A2983 RMK A01 T01610078  RH  058%=      5-min Rain = 0
KST2 181625Z 21015KT 16/08 A2983 RMK A01 T01600078  RH  058%=      5-min Rain = 0
KST2 181626Z 21014KT 16/08 A2983 RMK A01 T01610078  RH  058%=      5-min Rain = 0
KST2 181627Z 21014KT 16/08 A2983 RMK A01 T01610078  RH  058%=      5-min Rain = 0
KST2 181628Z 21016KT 16/08 A2983 RMK A01 T01610078  RH  058%=      5-min Rain = 0
KST2 181629Z 21014KT 16/08 A2983 RMK A01 T01610078  RH  058%=      5-min Rain = 0
KST2 181630Z 21013KT 16/08 A2982 RMK A01 T01610080  RH  058%=      5-min Rain = 0
KST2 181631Z 21014KT 16/08 A2982 RMK A01 T01600079  RH  058%=      5-min Rain = 0
KST2 181632Z 21015KT 16/08 A2983 RMK A01 T01600078  RH  058%=      5-min Rain = 0
KST2 181633Z 21014KT 16/08 A2982 RMK A01 T01600078  RH  058%=      5-min Rain = 0
KST2 181634Z 21013KT 16/08 A2982 RMK A01 T01600079  RH  058%=      5-min Rain = 0
KST2 181635Z 21014KT 16/08 A2982 RMK A01 T01610080  RH  059%=      5-min Rain = 0
KST2 181636Z 21015KT 16/08 A2982 RMK A01 T01620079  RH  058%=      5-min Rain = 0
KST2 181637Z 21014KT 16/08 A2982 RMK A01 T01640079  RH  057%=      5-min Rain = 0
KST2 181638Z 21013KT 17/08 A2982 RMK A01 T01650080  RH  057%=      5-min Rain = 0
KST2 181639Z 21012KT 17/08 A2982 RMK A01 T01660083  RH  058%=      5-min Rain = 0
KST2 181640Z 21014KT 17/08 A2982 RMK A01 T01680082  RH  057%=      5-min Rain = 0
KST2 181641Z 21014KT 17/08 A2982 RMK A01 T01690081  RH  056%=      5-min Rain = 0
KST2 181642Z 21012KT 17/08 A2982 RMK A01 T01700084  RH  057%=      5-min Rain = 0
KST2 181643Z 21012KT 17/09 A2982 RMK A01 T01710085  RH  057%=      5-min Rain = 0
KST2 181644Z 21011KT 17/09 A2982 RMK A01 T01720086  RH  057%=      5-min Rain = 0
KST2 181645Z 21012KT 17/09 A2982 RMK A01 T01730085  RH  056%=      5-min Rain = 0
KST2 181646Z 21010KT 17/09 A2982 RMK A01 T01730087  RH  057%=      5-min Rain = 0
KST2 181647Z 20012KT 17/09 A2982 RMK A01 T01740087  RH  056%=      5-min Rain = 0
KST2 181648Z 21013KT 18/09 A2981 RMK A01 T01750085  RH  055%=      5-min Rain = 0
KST2 181649Z 21013KT 18/09 A2981 RMK A01 T01750087  RH  056%=      5-min Rain = 0
KST2 181650Z 20013KT 18/09 A2981 RMK A01 T01760085  RH  055%=      5-min Rain = 0
KST2 181651Z 21013G18KT 18/09 A2981 RMK A01 T01760087  RH  056%=      5-min Rain = 0
KST2 181652Z 21016KT 18/09 A2981 RMK A01 T01770086  RH  055%=      5-min Rain = 0
KST2 181653Z 21015KT 18/08 A2981 RMK A01 T01760084  RH  055%=      5-min Rain = 0
KST2 181654Z 20014KT 18/09 A2981 RMK A01 T01760086  RH  055%=      5-min Rain = 0
KST2 181655Z 21012KT 18/09 A2981 RMK A01 T01770088  RH  056%=      5-min Rain = 0
KST2 181656Z 21012KT 18/09 A2981 RMK A01 T01770090  RH  056%=      5-min Rain = 0
KST2 181657Z 21018KT 18/09 A2981 RMK A01 T01780086  RH  055%=      5-min Rain = 0
KST2 181658Z 21016KT 18/09 A2981 RMK A01 T01770085  RH  055%=      5-min Rain = 0
KST2 181659Z 21016KT 18/09 A2981 RMK A01 T01760085  RH  055%=      5-min Rain = 0
KST2 181700Z 20015KT 18/08 A2981 RMK A01 T01760084  RH  055%=      5-min Rain = 0
KST2 181701Z 20017KT 18/08 A2981 RMK A01 T01760083  RH  055%=      5-min Rain = 0
KST2 181702Z 21018KT 18/08 A2981 RMK A01 T01770082  RH  053%=      5-min Rain = 0
KST2 181703Z 21015KT 18/09 A2981 RMK A01 T01790086  RH  054%=      5-min Rain = 0
KST2 181704Z 21015KT 18/09 A2981 RMK A01 T01810088  RH  055%=      5-min Rain = 0
KST2 181705Z 20016KT 18/09 A2981 RMK A01 T01820087  RH  054%=      5-min Rain = 0
KST2 181706Z 20018KT 18/09 A2981 RMK A01 T01820085  RH  053%=      5-min Rain = 0
KST2 181707Z 20016KT 18/09 A2981 RMK A01 T01820085  RH  053%=      5-min Rain = 0
KST2 181708Z 20017KT 18/09 A298 RMK A01 T01830088  RH  054%=      5-min Rain = 0
KST2 181709Z 21018KT 18/08 A298 RMK A01 T01830084  RH  052%=      5-min Rain = 0
KST2 181710Z 20016KT 18/09 A298 RMK A01 T01830087  RH  053%=      5-min Rain = 0
KST2 181711Z 20017KT 18/09 A298 RMK A01 T01840086  RH  053%=      5-min Rain = 0
KST2 181712Z 20016KT 19/09 A298 RMK A01 T01850086  RH  053%=      5-min Rain = 0
KST2 181713Z 20015KT 19/09 A298 RMK A01 T01860086  RH  052%=      5-min Rain = 0
KST2 181714Z 20016G21KT 19/09 A298 RMK A01 T01870088  RH  053%=      5-min Rain = 0
KST2 181715Z 20016KT 19/09 A298 RMK A01 T01880087  RH  052%=      5-min Rain = 0
KST2 181716Z 20014KT 19/09 A2979 RMK A01 T01890085  RH  051%=      5-min Rain = 0
KST2 181717Z 20013KT 19/09 A2979 RMK A01 T01900088  RH  052%=      5-min Rain = 0
KST2 181718Z 20015KT 19/09 A2979 RMK A01 T01910088  RH  051%=      5-min Rain = 0
KST2 181719Z 19017G23KT 19/09 A2979 RMK A01 T01910087  RH  051%=      5-min Rain = 0
KST2 181720Z 20019KT 19/08 A2979 RMK A01 T01920082  RH  049%=      5-min Rain = 0
KST2 181721Z 20016KT 19/08 A2979 RMK A01 T01920084  RH  050%=      5-min Rain = 0
KST2 181722Z 20017KT 19/09 A2978 RMK A01 T01920086  RH  050%=      5-min Rain = 0
KST2 181723Z 20015KT 19/09 A2978 RMK A01 T01930086  RH  050%=      5-min Rain = 0
KST2 181724Z 20013KT 19/09 A2979 RMK A01 T01940089  RH  050%=      5-min Rain = 0
KST2 181725Z 20017KT 20/09 A2978 RMK A01 T01950089  RH  050%=      5-min Rain = 0
KST2 181726Z 20016KT 20/09 A2978 RMK A01 T01960086  RH  049%=      5-min Rain = 0
KST2 181727Z 19014KT 20/09 A2979 RMK A01 T01960090  RH  050%=      5-min Rain = 0
KST2 181728Z 19014KT 20/09 A2978 RMK A01 T01960093  RH  051%=      5-min Rain = 0
KST2 181729Z 20015KT 20/09 A2978 RMK A01 T01960092  RH  051%=      5-min Rain = 0
KST2 181730Z 19016KT 20/09 A2978 RMK A01 T01970089  RH  050%=      5-min Rain = 0
KST2 181731Z 20015KT 20/09 A2978 RMK A01 T01970092  RH  051%=      5-min Rain = 0
KST2 181732Z 20015KT 20/09 A2978 RMK A01 T01960090  RH  050%=      5-min Rain = 0
KST2 181733Z 20014KT 20/09 A2978 RMK A01 T01960092  RH  051%=      5-min Rain = 0
KST2 181734Z 20014KT 20/09 A2978 RMK A01 T01970093  RH  051%=      5-min Rain = 0
KST2 181735Z 20014KT 20/09 A2978 RMK A01 T01970094  RH  051%=      5-min Rain = 0
KST2 181736Z 20014KT 20/09 A2978 RMK A01 T01980094  RH  051%=      5-min Rain = 0
KST2 181737Z 20015KT 20/09 A2978 RMK A01 T01980093  RH  051%=      5-min Rain = 0
KST2 181738Z 19015KT 20/09 A2978 RMK A01 T01980092  RH  050%=      5-min Rain = 0
KST2 181739Z 20017KT 20/09 A2978 RMK A01 T01980090  RH  050%=      5-min Rain = 0
KST2 181740Z 19015KT 20/09 A2978 RMK A01 T01980088  RH  049%=      5-min Rain = 0
KST2 181741Z 20014KT 20/09 A2978 RMK A01 T01980092  RH  050%=      5-min Rain = 0
KST2 181742Z 19014KT 20/09 A2978 RMK A01 T01980093  RH  051%=      5-min Rain = 0
KST2 181743Z 20013KT 20/09 A2978 RMK A01 T01980093  RH  051%=      5-min Rain = 0
KST2 181744Z 20015KT 20/10 A2978 RMK A01 T01990096  RH  052%=      5-min Rain = 0
KST2 181745Z 21013KT 20/10 A2978 RMK A01 T02000095  RH  051%=      5-min Rain = 0
KST2 181746Z 20016KT 20/10 A2978 RMK A01 T02010095  RH  051%=      5-min Rain = 0
KST2 181747Z 20016KT 20/09 A2978 RMK A01 T02010092  RH  049%=      5-min Rain = 0
KST2 181748Z 20017KT 20/09 A2978 RMK A01 T02010091  RH  049%=      5-min Rain = 0
KST2 181749Z 20014G19KT 20/09 A2978 RMK A01 T02010092  RH  049%=      5-min Rain = 0
KST2 181750Z 20014KT 20/09 A2977 RMK A01 T02010093  RH  050%=      5-min Rain = 0
KST2 181751Z 20014KT 20/10 A2977 RMK A01 T02020096  RH  050%=      5-min Rain = 0
KST2 181752Z 20015KT 20/09 A2977 RMK A01 T02020092  RH  049%=      5-min Rain = 0
KST2 181753Z 20017KT 20/09 A2977 RMK A01 T02020092  RH  049%=      5-min Rain = 0
KST2 181754Z 20015KT 20/09 A2977 RMK A01 T02020091  RH  049%=      5-min Rain = 0
KST2 181755Z 20016KT 20/09 A2977 RMK A01 T02020093  RH  049%=      5-min Rain = 0
KST2 181756Z 21018KT 20/09 A2977 RMK A01 T02020091  RH  049%=      5-min Rain = 0
KST2 181757Z 21015KT 20/09 A2977 RMK A01 T02030091  RH  049%=      5-min Rain = 0
KST2 181758Z 20015KT 20/10 A2977 RMK A01 T02030095  RH  050%=      5-min Rain = 0
KST2 181759Z 20016KT 20/09 A2977 RMK A01 T02040092  RH  049%=      5-min Rain = 0
KST2 181800Z 20015KT 20/09 A2977 RMK A01 T02040093  RH  049%=      5-min Rain = 0
KST2 181801Z 21013KT 21/09 A2977 RMK A01 T02050094  RH  049%=      5-min Rain = 0
KST2 181802Z 21013KT 21/10 A2977 RMK A01 T02060099  RH  050%=      5-min Rain = 0
KST2 181803Z 20013KT 21/10 A2976 RMK A01 T02070098  RH  050%=      5-min Rain = 0
KST2 181804Z 20015KT 21/10 A2976 RMK A01 T02080097  RH  049%=      5-min Rain = 0
KST2 181805Z 21012KT 21/10 A2976 RMK A01 T02080100  RH  050%=      5-min Rain = 0
KST2 181806Z 21015KT 21/10 A2976 RMK A01 T02090100  RH  050%=      5-min Rain = 0
KST2 181807Z 21016KT 21/10 A2976 RMK A01 T02100096  RH  048%=      5-min Rain = 0
KST2 181808Z 22015KT 21/10 A2975 RMK A01 T02100098  RH  049%=      5-min Rain = 0
KST2 181809Z 22016KT 21/10 A2975 RMK A01 T02110098  RH  048%=      5-min Rain = 0
KST2 181810Z 22014KT 21/10 A2975 RMK A01 T02130099  RH  048%=      5-min Rain = 0
KST2 181811Z 21015KT 21/10 A2975 RMK A01 T02140099  RH  048%=      5-min Rain = 0
KST2 181812Z 22016G21KT 22/10 A2975 RMK A01 T02150098  RH  047%=      5-min Rain = 0
KST2 181813Z 22019KT 22/09 A2975 RMK A01 T02160094  RH  046%=      5-min Rain = 0
KST2 181814Z 22018KT 22/09 A2975 RMK A01 T02160093  RH  045%=      5-min Rain = 0
KST2 181815Z 22017KT 22/09 A2974 RMK A01 T02160094  RH  046%=      5-min Rain = 0
KST2 181816Z 21012KT 22/10 A2974 RMK A01 T02160101  RH  048%=      5-min Rain = 0
KST2 181817Z 21017KT 22/10 A2974 RMK A01 T02170096  RH  046%=      5-min Rain = 0
KST2 181818Z 22018KT 22/10 A2974 RMK A01 T02180095  RH  046%=      5-min Rain = 0
KST2 181819Z 22017KT 22/10 A2974 RMK A01 T02170096  RH  046%=      5-min Rain = 0
KST2 181820Z 22018KT 22/09 A2974 RMK A01 T02180093  RH  045%=      5-min Rain = 0
KST2 181821Z 22019G24KT 22/09 A2974 RMK A01 T02190093  RH  045%=      5-min Rain = 0
KST2 181822Z 23022KT 22/09 A2974 RMK A01 T02200086  RH  042%=      5-min Rain = 0
KST2 181823Z 24020KT 22/08 A2974 RMK A01 T02220083  RH  041%=      5-min Rain = 0
KST2 181824Z 23023KT 22/08 A2973 RMK A01 T02230080  RH  040%=      5-min Rain = 0
KST2 181825Z 23023KT 22/08 A2973 RMK A01 T02230077  RH  039%=      5-min Rain = 0
KST2 181826Z 23022KT 22/08 A2973 RMK A01 T02240081  RH  040%=      5-min Rain = 0
KST2 181827Z 23023KT 22/08 A2973 RMK A01 T02240076  RH  038%=      5-min Rain = 0
KST2 181828Z 23022KT 22/07 A2973 RMK A01 T02240073  RH  038%=      5-min Rain = 0
KST2 181829Z 22019KT 22/08 A2973 RMK A01 T02240077  RH  039%=      5-min Rain = 0
KST2 181830Z 23019KT 22/08 A2973 RMK A01 T02240079  RH  039%=      5-min Rain = 0
KST2 181831Z 23017G22KT 22/08 A2973 RMK A01 T02240083  RH  040%=      5-min Rain = 0
KST2 181832Z 23020KT 23/08 A2973 RMK A01 T02250079  RH  039%=      5-min Rain = 0
KST2 181833Z 23019KT 23/08 A2973 RMK A01 T02250079  RH  039%=      5-min Rain = 0
KST2 181834Z 23017KT 23/08 A2973 RMK A01 T02260082  RH  040%=      5-min Rain = 0
KST2 181835Z 23017KT 23/08 A2973 RMK A01 T02270083  RH  040%=      5-min Rain = 0
KST2 181836Z 23017KT 23/08 A2972 RMK A01 T02270083  RH  040%=      5-min Rain = 0
KST2 181837Z 23018KT 23/08 A2972 RMK A01 T02280082  RH  039%=      5-min Rain = 0
KST2 181838Z 24019KT 23/08 A2972 RMK A01 T02280082  RH  039%=      5-min Rain = 0
KST2 181839Z 24019KT 23/08 A2972 RMK A01 T02290077  RH  038%=      5-min Rain = 0
KST2 181840Z 24018KT 23/08 A2972 RMK A01 T02290082  RH  039%=      5-min Rain = 0
KST2 181841Z 23017G23KT 23/08 A2972 RMK A01 T02300079  RH  038%=      5-min Rain = 0
KST2 181842Z 24019KT 23/08 A2972 RMK A01 T02300080  RH  038%=      5-min Rain = 0
KST2 181843Z 24019KT 23/08 A2972 RMK A01 T02300081  RH  038%=      5-min Rain = 0
KST2 181844Z 23018KT 23/08 A2972 RMK A01 T02310081  RH  038%=      5-min Rain = 0
KST2 181845Z 24022KT 23/07 A2971 RMK A01 T02320074  RH  036%=      5-min Rain = 0
KST2 181846Z 24023KT 23/07 A2971 RMK A01 T02320070  RH  035%=      5-min Rain = 0
KST2 181847Z 24018KT 23/07 A2971 RMK A01 T02320072  RH  036%=      5-min Rain = 0
KST2 181848Z 23017G22KT 23/08 A2971 RMK A01 T02330081  RH  038%=      5-min Rain = 0
KST2 181849Z 23016G23KT 23/09 A2971 RMK A01 T02330086  RH  039%=      5-min Rain = 0
KST2 181850Z 23021KT 23/08 A2971 RMK A01 T02340079  RH  037%=      5-min Rain = 0
KST2 181851Z 23022KT 23/08 A2971 RMK A01 T02340081  RH  038%=      5-min Rain = 0
KST2 181852Z 23021KT 23/08 A297 RMK A01 T02330077  RH  037%=      5-min Rain = 0
KST2 181853Z 23020G25KT 23/08 A297 RMK A01 T02330079  RH  037%=      5-min Rain = 0
KST2 181854Z 23019KT 23/08 A297 RMK A01 T02330082  RH  038%=      5-min Rain = 0
KST2 181855Z 23019KT 23/08 A297 RMK A01 T02320081  RH  038%=      5-min Rain = 0
KST2 181856Z 24020KT 23/08 A297 RMK A01 T02320079  RH  037%=      5-min Rain = 0
KST2 181857Z 23017G22KT 23/08 A297 RMK A01 T02320082  RH  038%=      5-min Rain = 0
KST2 181858Z 23022G27KT 23/08 A297 RMK A01 T02330083  RH  038%=      5-min Rain = 0
KST2 181859Z 23021G30KT 23/07 A2969 RMK A01 T02330073  RH  036%=      5-min Rain = 0
KST2 181900Z 23022KT 23/08 A2969 RMK A01 T02320076  RH  037%=      5-min Rain = 0
KST2 181901Z 23021G27KT 23/08 A2969 RMK A01 T02310077  RH  037%=      5-min Rain = 0
KST2 181902Z 23021G27KT 23/07 A2969 RMK A01 T02300073  RH  036%=      5-min Rain = 0
KST2 181903Z 24022KT 23/08 A2969 RMK A01 T02300076  RH  037%=      5-min Rain = 0
KST2 181904Z 24020G28KT 23/07 A2969 RMK A01 T02300074  RH  037%=      5-min Rain = 0
KST2 181905Z 24025KT 23/07 A2969 RMK A01 T02300068  RH  035%=      5-min Rain = 0
KST2 181906Z 23024G31KT 23/07 A2969 RMK A01 T02310070  RH  035%=      5-min Rain = 0
KST2 181907Z 24027KT 23/07 A2969 RMK A01 T02320068  RH  035%=      5-min Rain = 0
KST2 181908Z 23025G30KT 23/07 A2969 RMK A01 T02320067  RH  035%=      5-min Rain = 0
KST2 181909Z 24025G32KT 23/07 A2969 RMK A01 T02320068  RH  035%=      5-min Rain = 0
KST2 181910Z 24027KT 23/06 A2968 RMK A01 T02320060  RH  033%=      5-min Rain = 0
KST2 181911Z 25022KT 23/06 A2968 RMK A01 T02320064  RH  034%=      5-min Rain = 0
KST2 181912Z 25020G25KT 23/07 A2968 RMK A01 T02320069  RH  035%=      5-min Rain = 0
KST2 181913Z 24022KT 23/07 A2968 RMK A01 T02320066  RH  034%=      5-min Rain = 0
KST2 181914Z 25023KT 23/06 A2968 RMK A01 T02330064  RH  034%=      5-min Rain = 0
KST2 181915Z 24022G27KT 23/07 A2968 RMK A01 T02340066  RH  034%=      5-min Rain = 0
KST2 181916Z 24023KT 23/07 A2968 RMK A01 T02340067  RH  034%=      5-min Rain = 0
KST2 181917Z 24023KT 24/07 A2968 RMK A01 T02350070  RH  035%=      5-min Rain = 0
KST2 181918Z 25024KT 24/07 A2968 RMK A01 T02350065  RH  033%=      5-min Rain = 0
KST2 181919Z 25023KT 24/07 A2968 RMK A01 T02350067  RH  034%=      5-min Rain = 0
KST2 181920Z 24019G24KT 24/07 A2968 RMK A01 T02350071  RH  035%=      5-min Rain = 0
KST2 181921Z 25021G26KT 24/08 A2968 RMK A01 T02350075  RH  036%=      5-min Rain = 0
KST2 181922Z 24022G27KT 23/07 A2967 RMK A01 T02340069  RH  035%=      5-min Rain = 0
KST2 181923Z 24022G28KT 23/07 A2967 RMK A01 T02330073  RH  036%=      5-min Rain = 0
KST2 181924Z 23023G28KT 23/07 A2967 RMK A01 T02330068  RH  034%=      5-min Rain = 0
KST2 181925Z 24023KT 23/07 A2967 RMK A01 T02330070  RH  035%=      5-min Rain = 0
KST2 181926Z 25021G26KT 23/07 A2967 RMK A01 T02330069  RH  035%=      5-min Rain = 0
KST2 181927Z 24021G27KT 23/07 A2967 RMK A01 T02320071  RH  035%=      5-min Rain = 0
KST2 181928Z 23018KT 23/08 A2967 RMK A01 T02330076  RH  037%=      5-min Rain = 0
KST2 181929Z 23022KT 23/07 A2967 RMK A01 T02320072  RH  036%=      5-min Rain = 0
KST2 181930Z 23022KT 23/07 A2967 RMK A01 T02310074  RH  036%=      5-min Rain = 0
KST2 181931Z 23020KT 23/07 A2967 RMK A01 T02300072  RH  036%=      5-min Rain = 0
KST2 181932Z 23018KT 23/08 A2967 RMK A01 T02290076  RH  037%=      5-min Rain = 0
KST2 181933Z 23019KT 23/08 A2967 RMK A01 T02290077  RH  038%=      5-min Rain = 0
KST2 181934Z 23020G29KT 23/08 A2967 RMK A01 T02290075  RH  037%=      5-min Rain = 0
KST2 181935Z 23025KT 23/07 A2966 RMK A01 T02290068  RH  035%=      5-min Rain = 0
KST2 181936Z 24021KT 23/07 A2966 RMK A01 T02300069  RH  035%=      5-min Rain = 0
KST2 181937Z 24021KT 23/07 A2966 RMK A01 T02300067  RH  035%=      5-min Rain = 0
KST2 181938Z 24020G25KT 23/07 A2966 RMK A01 T02310071  RH  036%=      5-min Rain = 0
KST2 181939Z 24019KT 23/07 A2966 RMK A01 T02310068  RH  035%=      5-min Rain = 0
KST2 181940Z 23017KT 23/07 A2966 RMK A01 T02310071  RH  036%=      5-min Rain = 0
KST2 181941Z 23020G26KT 23/07 A2966 RMK A01 T02300070  RH  036%=      5-min Rain = 0
KST2 181942Z 23022KT 23/07 A2966 RMK A01 T02300066  RH  035%=      5-min Rain = 0
KST2 181943Z 24020KT 23/07 A2966 RMK A01 T02300071  RH  036%=      5-min Rain = 0
KST2 181944Z 24024KT 23/07 A2966 RMK A01 T02300067  RH  035%=      5-min Rain = 0
KST2 181945Z 24024KT 23/07 A2966 RMK A01 T02310065  RH  034%=      5-min Rain = 0
KST2 181946Z 24026KT 23/06 A2966 RMK A01 T02320063  RH  034%=      5-min Rain = 0
KST2 181947Z 25023KT 23/06 A2966 RMK A01 T02320061  RH  033%=      5-min Rain = 0
KST2 181948Z 24017G22KT 23/07 A2966 RMK A01 T02320065  RH  034%=      5-min Rain = 0
KST2 181949Z 25019KT 23/07 A2966 RMK A01 T02320065  RH  034%=      5-min Rain = 0
KST2 181950Z 24017KT 23/07 A2966 RMK A01 T02320066  RH  034%=      5-min Rain = 0
KST2 181951Z 24018KT 23/07 A2966 RMK A01 T02330069  RH  035%=      5-min Rain = 0
KST2 181952Z 25017KT 23/07 A2966 RMK A01 T02320069  RH  035%=      5-min Rain = 0
KST2 181953Z 24016KT 23/07 A2965 RMK A01 T02320072  RH  036%=      5-min Rain = 0
KST2 181954Z 24021G28KT 23/07 A2965 RMK A01 T02310067  RH  035%=      5-min Rain = 0
KST2 181955Z 24024KT 23/06 A2965 RMK A01 T02300062  RH  034%=      5-min Rain = 0
KST2 181956Z 24024G30KT 23/06 A2965 RMK A01 T02300057  RH  033%=      5-min Rain = 0
KST2 181957Z 24025G31KT 23/06 A2965 RMK A01 T02290057  RH  033%=      5-min Rain = 0
KST2 181958Z 24025G31KT 23/06 A2965 RMK A01 T02290057  RH  033%=      5-min Rain = 0
KST2 181959Z 24026KT 23/05 A2965 RMK A01 T02290054  RH  032%=      5-min Rain = 0
KST2 182000Z 24024KT 23/06 A2965 RMK A01 T02290055  RH  032%=      5-min Rain = 0
KST2 182001Z 24025G30KT 23/05 A2965 RMK A01 T02290054  RH  032%=      5-min Rain = 0
KST2 182002Z 24023KT 23/06 A2965 RMK A01 T02290055  RH  032%=      5-min Rain = 0
KST2 182003Z 24019G24KT 23/06 A2965 RMK A01 T02290061  RH  034%=      5-min Rain = 0
KST2 182004Z 25022KT 23/06 A2965 RMK A01 T02280061  RH  034%=      5-min Rain = 0
KST2 182005Z 24023G31KT 23/06 A2965 RMK A01 T02280058  RH  033%=      5-min Rain = 0
KST2 182006Z 24019G24KT 23/06 A2965 RMK A01 T02280060  RH  034%=      5-min Rain = 0
KST2 182007Z 24018KT 23/06 A2965 RMK A01 T02280062  RH  034%=      5-min Rain = 0
KST2 182008Z 24021KT 23/06 A2964 RMK A01 T02280057  RH  033%=      5-min Rain = 0
KST2 182009Z 24019KT 23/06 A2964 RMK A01 T02290057  RH  033%=      5-min Rain = 0
KST2 182010Z 23019G25KT 23/06 A2964 RMK A01 T02290063  RH  034%=      5-min Rain = 0
KST2 182011Z 23022G27KT 23/06 A2964 RMK A01 T02280059  RH  033%=      5-min Rain = 0
KST2 182012Z 23019KT 23/06 A2964 RMK A01 T02280060  RH  034%=      5-min Rain = 0
KST2 182013Z 23017KT 23/07 A2964 RMK A01 T02280069  RH  036%=      5-min Rain = 0
KST2 182014Z 23018G25KT 23/07 A2964 RMK A01 T02260069  RH  036%=      5-min Rain = 0
KST2 182015Z 24024G29KT 23/06 A2964 RMK A01 T02260062  RH  035%=      5-min Rain = 0
KST2 182016Z 24023KT 23/06 A2964 RMK A01 T02270055  RH  033%=      5-min Rain = 0
KST2 182017Z 24020KT 23/06 A2964 RMK A01 T02270058  RH  033%=      5-min Rain = 0
KST2 182018Z 24017KT 23/06 A2964 RMK A01 T02280062  RH  034%=      5-min Rain = 0
KST2 182019Z 24016G21KT 23/07 A2964 RMK A01 T02270068  RH  036%=      5-min Rain = 0
KST2 182020Z 24017KT 23/07 A2964 RMK A01 T02260066  RH  036%=      5-min Rain = 0
KST2 182021Z 24015KT 23/06 A2964 RMK A01 T02260064  RH  035%=      5-min Rain = 0
KST2 182022Z 24019KT 23/06 A2964 RMK A01 T02260064  RH  035%=      5-min Rain = 0
KST2 182023Z 24019KT 23/06 A2964 RMK A01 T02260062  RH  035%=      5-min Rain = 0
KST2 182024Z 24018KT 23/06 A2964 RMK A01 T02260061  RH  034%=      5-min Rain = 0
KST2 182025Z 24018KT 23/06 A2964 RMK A01 T02260062  RH  035%=      5-min Rain = 0
KST2 182026Z 23017KT 23/06 A2964 RMK A01 T02250064  RH  035%=      5-min Rain = 0
KST2 182027Z 24019G24KT 22/06 A2964 RMK A01 T02240063  RH  035%=      5-min Rain = 0
KST2 182028Z 24028KT 22/05 A2963 RMK A01 T02240054  RH  033%=      5-min Rain = 0
KST2 182029Z 24026KT 23/05 A2963 RMK A01 T02250052  RH  032%=      5-min Rain = 0
KST2 182030Z 24021G26KT 23/06 A2964 RMK A01 T02250055  RH  033%=      5-min Rain = 0
KST2 182031Z 25022G27KT 22/06 A2964 RMK A01 T02240055  RH  033%=      5-min Rain = 0
KST2 182032Z 25022G27KT 22/06 A2964 RMK A01 T02230058  RH  034%=      5-min Rain = 0
KST2 182033Z 24022G27KT 22/05 A2964 RMK A01 T02220053  RH  033%=      5-min Rain = 0
KST2 182034Z 25024G29KT 22/05 A2964 RMK A01 T02220051  RH  033%=      5-min Rain = 0
KST2 182035Z 25019KT 22/06 A2964 RMK A01 T02220057  RH  034%=      5-min Rain = 0
KST2 182036Z 25022G29KT 22/06 A2964 RMK A01 T02210055  RH  034%=      5-min Rain = 0
KST2 182037Z 25019KT 22/06 A2964 RMK A01 T02210058  RH  035%=      5-min Rain = 0
KST2 182038Z 25022G27KT 22/06 A2964 RMK A01 T02200057  RH  035%=      5-min Rain = 0
KST2 182039Z 25021KT 22/05 A2964 RMK A01 T02200054  RH  034%=      5-min Rain = 0
KST2 182040Z 25021KT 22/06 A2964 RMK A01 T02200057  RH  035%=      5-min Rain = 0
KST2 182041Z 25021KT 22/06 A2964 RMK A01 T02200056  RH  034%=      5-min Rain = 0
KST2 182042Z 25019KT 22/06 A2964 RMK A01 T02200059  RH  035%=      5-min Rain = 0
KST2 182043Z 25017KT 22/06 A2964 RMK A01 T02190059  RH  035%=      5-min Rain = 0
KST2 182044Z 25022KT 22/06 A2964 RMK A01 T02190057  RH  035%=      5-min Rain = 0
KST2 182045Z 25021KT 22/06 A2964 RMK A01 T02190056  RH  035%=      5-min Rain = 0
KST2 182046Z 25021KT 22/06 A2964 RMK A01 T02190058  RH  035%=      5-min Rain = 0
KST2 182047Z 25022G29KT 22/06 A2964 RMK A01 T02190056  RH  035%=      5-min Rain = 0
KST2 182048Z 25022KT 22/05 A2964 RMK A01 T02190052  RH  034%=      5-min Rain = 0
KST2 182049Z 25020KT 22/06 A2964 RMK A01 T02200055  RH  034%=      5-min Rain = 0
KST2 182050Z 25023G28KT 22/05 A2963 RMK A01 T02200052  RH  034%=      5-min Rain = 0
KST2 182051Z 25020G25KT 22/06 A2964 RMK A01 T02200056  RH  034%=      5-min Rain = 0
KST2 182052Z 25022KT 22/06 A2964 RMK A01 T02200056  RH  035%=      5-min Rain = 0
KST2 182053Z 25024G30KT 22/05 A2963 RMK A01 T02190053  RH  034%=      5-min Rain = 0
KST2 182054Z 25022KT 22/05 A2964 RMK A01 T02200051  RH  033%=      5-min Rain = 0
KST2 182055Z 25023G28KT 22/05 A2964 RMK A01 T02210054  RH  034%=      5-min Rain = 0
KST2 182056Z 25020G25KT 22/06 A2964 RMK A01 T02200055  RH  034%=      5-min Rain = 0
KST2 182057Z 25019KT 22/06 A2964 RMK A01 T02200056  RH  035%=      5-min Rain = 0
KST2 182058Z 25020G25KT 22/06 A2964 RMK A01 T02210056  RH  034%=      5-min Rain = 0
KST2 182059Z 25018KT 22/06 A2964 RMK A01 T02220057  RH  034%=      5-min Rain = 0
KST2 182100Z 25016KT 22/06 A2964 RMK A01 T02220060  RH  035%=      5-min Rain = 0
KST2 182101Z 25018KT 22/06 A2963 RMK A01 T02220057  RH  034%=      5-min Rain = 0
KST2 182102Z 25016KT 22/06 A2964 RMK A01 T02220060  RH  035%=      5-min Rain = 0
KST2 182103Z 25017KT 22/06 A2964 RMK A01 T02210063  RH  036%=      5-min Rain = 0
KST2 182104Z 25017KT 22/06 A2964 RMK A01 T02210059  RH  035%=      5-min Rain = 0
KST2 182105Z 25017KT 22/06 A2963 RMK A01 T02210061  RH  035%=      5-min Rain = 0
KST2 182106Z 25018G25KT 22/06 A2964 RMK A01 T02210055  RH  034%=      5-min Rain = 0
KST2 182107Z 25017KT 22/06 A2963 RMK A01 T02220058  RH  034%=      5-min Rain = 0
KST2 182108Z 24014KT 22/06 A2963 RMK A01 T02230063  RH  035%=      5-min Rain = 0
KST2 182109Z 24015KT 22/06 A2963 RMK A01 T02230064  RH  036%=      5-min Rain = 0
KST2 182110Z 24016KT 22/06 A2963 RMK A01 T02240059  RH  034%=      5-min Rain = 0
KST2 182111Z 24014KT 22/06 A2963 RMK A01 T02240064  RH  035%=      5-min Rain = 0
KST2 182112Z 24017KT 22/06 A2963 RMK A01 T02240059  RH  034%=      5-min Rain = 0
KST2 182113Z 25019G24KT 22/06 A2963 RMK A01 T02240056  RH  034%=      5-min Rain = 0
KST2 182114Z 25018KT 22/06 A2963 RMK A01 T02240058  RH  034%=      5-min Rain = 0
KST2 182115Z 25016KT 22/06 A2963 RMK A01 T02240061  RH  035%=      5-min Rain = 0
KST2 182116Z 25018KT 22/06 A2963 RMK A01 T02230056  RH  034%=      5-min Rain = 0
KST2 182117Z 25015KT 22/06 A2963 RMK A01 T02230061  RH  035%=      5-min Rain = 0
KST2 182118Z 25018G23KT 22/06 A2963 RMK A01 T02230061  RH  035%=      5-min Rain = 0
KST2 182119Z 25017KT 22/06 A2963 RMK A01 T02240059  RH  034%=      5-min Rain = 0
KST2 182120Z 25017KT 22/06 A2963 RMK A01 T02240059  RH  034%=      5-min Rain = 0
KST2 182121Z 24015G20KT 22/06 A2963 RMK A01 T02240056  RH  033%=      5-min Rain = 0
KST2 182122Z 25020KT 23/06 A2963 RMK A01 T02250056  RH  033%=      5-min Rain = 0
KST2 182123Z 25019G24KT 23/06 A2963 RMK A01 T02260056  RH  033%=      5-min Rain = 0
KST2 182124Z 25020KT 23/06 A2963 RMK A01 T02260058  RH  034%=      5-min Rain = 0
KST2 182125Z 25021KT 23/05 A2963 RMK A01 T02260052  RH  032%=      5-min Rain = 0
KST2 182126Z 25019KT 23/05 A2963 RMK A01 T02270054  RH  032%=      5-min Rain = 0
KST2 182127Z 25019KT 23/05 A2963 RMK A01 T02270054  RH  032%=      5-min Rain = 0
KST2 182128Z 25021KT 23/05 A2963 RMK A01 T02280053  RH  032%=      5-min Rain = 0
KST2 182129Z 25018KT 23/05 A2963 RMK A01 T02280054  RH  032%=      5-min Rain = 0
KST2 182130Z 25017G22KT 23/06 A2963 RMK A01 T02280058  RH  033%=      5-min Rain = 0
KST2 182131Z 25022KT 23/05 A2962 RMK A01 T02280049  RH  031%=      5-min Rain = 0
KST2 182132Z 25019KT 23/05 A2963 RMK A01 T02290051  RH  032%=      5-min Rain = 0
KST2 182133Z 25015G21KT 23/06 A2963 RMK A01 T02290058  RH  033%=      5-min Rain = 0
KST2 182134Z 24018KT 23/06 A2963 RMK A01 T02290060  RH  034%=      5-min Rain = 0
KST2 182135Z 24021KT 23/05 A2963 RMK A01 T02290053  RH  032%=      5-min Rain = 0
KST2 182136Z 25019G25KT 23/05 A2963 RMK A01 T02290051  RH  031%=      5-min Rain = 0
KST2 182137Z 25020KT 23/06 A2963 RMK A01 T02290058  RH  033%=      5-min Rain = 0
KST2 182138Z 25020KT 23/05 A2963 RMK A01 T02280054  RH  032%=      5-min Rain = 0
KST2 182139Z 25018KT 23/06 A2963 RMK A01 T02290057  RH  033%=      5-min Rain = 0
KST2 182140Z 25019KT 23/06 A2963 RMK A01 T02280059  RH  033%=      5-min Rain = 0
KST2 182141Z 25023KT 23/05 A2963 RMK A01 T02290051  RH  031%=      5-min Rain = 0
KST2 182142Z 26018KT 23/05 A2963 RMK A01 T02290053  RH  032%=      5-min Rain = 0
KST2 182143Z 26017KT 23/06 A2963 RMK A01 T02290059  RH  033%=      5-min Rain = 0
KST2 182144Z 25014KT 23/06 A2963 RMK A01 T02280063  RH  034%=      5-min Rain = 0
KST2 182145Z 25015KT 23/07 A2964 RMK A01 T02280065  RH  035%=      5-min Rain = 0
KST2 182146Z 25014KT 23/07 A2964 RMK A01 T02280065  RH  035%=      5-min Rain = 0
KST2 182147Z 25020G26KT 23/06 A2964 RMK A01 T02270061  RH  034%=      5-min Rain = 0
KST2 182148Z 25018KT 23/06 A2964 RMK A01 T02280056  RH  033%=      5-min Rain = 0
KST2 182149Z 25020KT 23/06 A2963 RMK A01 T02280056  RH  033%=      5-min Rain = 0
KST2 182150Z 25020KT 23/06 A2963 RMK A01 T02280057  RH  033%=      5-min Rain = 0
KST2 182151Z 25016KT 23/06 A2963 RMK A01 T02280058  RH  033%=      5-min Rain = 0
KST2 182152Z 24016KT 23/06 A2963 RMK A01 T02280055  RH  033%=      5-min Rain = 0
KST2 182153Z 24020KT 23/06 A2963 RMK A01 T02280056  RH  033%=      5-min Rain = 0
KST2 182154Z 25020KT 23/06 A2963 RMK A01 T02280055  RH  033%=      5-min Rain = 0
KST2 182155Z 25020KT 23/06 A2963 RMK A01 T02280055  RH  033%=      5-min Rain = 0
KST2 182156Z 25021KT 23/05 A2963 RMK A01 T02280054  RH  032%=      5-min Rain = 0
KST2 182157Z 25021KT 23/05 A2963 RMK A01 T02280052  RH  032%=      5-min Rain = 0
KST2 182158Z 25019G24KT 23/06 A2963 RMK A01 T02280056  RH  033%=      5-min Rain = 0
KST2 182159Z 25020G28KT 23/06 A2963 RMK A01 T02280058  RH  033%=      5-min Rain = 0
KST2 182200Z 25021KT 23/06 A2963 RMK A01 T02280057  RH  033%=      5-min Rain = 0
KST2 182201Z 25026KT 23/05 A2963 RMK A01 T02280051  RH  032%=      5-min Rain = 0
KST2 182202Z 25022KT 23/05 A2963 RMK A01 T02280052  RH  032%=      5-min Rain = 0
KST2 182203Z 25018KT 23/06 A2963 RMK A01 T02280056  RH  033%=      5-min Rain = 0
KST2 182204Z 25019KT 23/06 A2963 RMK A01 T02280057  RH  033%=      5-min Rain = 0
KST2 182205Z 25019KT 23/06 A2963 RMK A01 T02280058  RH  033%=      5-min Rain = 0
KST2 182206Z 25019KT 23/06 A2963 RMK A01 T02270059  RH  034%=      5-min Rain = 0
KST2 182207Z 25016G21KT 23/06 A2963 RMK A01 T02280058  RH  033%=      5-min Rain = 0
KST2 182208Z 26019KT 23/06 A2963 RMK A01 T02280059  RH  034%=      5-min Rain = 0
KST2 182209Z 25020KT 23/06 A2963 RMK A01 T02270056  RH  033%=      5-min Rain = 0
KST2 182210Z 25022KT 23/05 A2963 RMK A01 T02270052  RH  032%=      5-min Rain = 0
KST2 182211Z 26019KT 23/05 A2963 RMK A01 T02260053  RH  032%=      5-min Rain = 0
KST2 182212Z 26015KT 22/06 A2963 RMK A01 T02240062  RH  035%=      5-min Rain = 0
KST2 182213Z 25016KT 22/06 A2963 RMK A01 T02220062  RH  035%=      5-min Rain = 0
KST2 182214Z 26017KT 22/06 A2963 RMK A01 T02200059  RH  035%=      5-min Rain = 0
KST2 182215Z 26017KT 22/06 A2963 RMK A01 T02190057  RH  035%=      5-min Rain = 0
KST2 182216Z 26015KT 22/06 A2963 RMK A01 T02190060  RH  036%=      5-min Rain = 0
KST2 182217Z 25019KT 22/05 A2963 RMK A01 T02180054  RH  034%=      5-min Rain = 0
KST2 182218Z 25020KT 22/05 A2963 RMK A01 T02190051  RH  033%=      5-min Rain = 0
KST2 182219Z 26021G26KT 22/05 A2963 RMK A01 T02200048  RH  033%=      5-min Rain = 0
KST2 182220Z 25020KT 22/05 A2963 RMK A01 T02210050  RH  033%=      5-min Rain = 0
KST2 182221Z 25021KT 22/05 A2963 RMK A01 T02210053  RH  033%=      5-min Rain = 0
KST2 182222Z 25020G25KT 22/05 A2963 RMK A01 T02210052  RH  033%=      5-min Rain = 0
KST2 182223Z 26021KT 22/05 A2963 RMK A01 T02220051  RH  033%=      5-min Rain = 0
KST2 182224Z 25015KT 22/06 A2963 RMK A01 T02220058  RH  034%=      5-min Rain = 0
KST2 182225Z 26018KT 22/06 A2963 RMK A01 T02220055  RH  034%=      5-min Rain = 0
KST2 182226Z 25017KT 22/06 A2963 RMK A01 T02220055  RH  034%=      5-min Rain = 0
KST2 182227Z 26017KT 22/06 A2963 RMK A01 T02220055  RH  034%=      5-min Rain = 0
KST2 182228Z 25015KT 22/06 A2963 RMK A01 T02200059  RH  035%=      5-min Rain = 0
KST2 182229Z 25015KT 22/06 A2963 RMK A01 T02190057  RH  035%=      5-min Rain = 0
KST2 182230Z 25013KT 22/06 A2963 RMK A01 T02190059  RH  035%=      5-min Rain = 0
KST2 182231Z 25015KT 22/06 A2963 RMK A01 T02170058  RH  035%=      5-min Rain = 0
KST2 182232Z 26017G25KT 22/06 A2963 RMK A01 T02170056  RH  035%=      5-min Rain = 0
KST2 182233Z 25019G25KT 22/05 A2963 RMK A01 T02170051  RH  034%=      5-min Rain = 0
KST2 182234Z 26018KT 22/05 A2963 RMK A01 T02180054  RH  034%=      5-min Rain = 0
KST2 182235Z 25017KT 22/05 A2964 RMK A01 T02180054  RH  035%=      5-min Rain = 0
KST2 182236Z 26018KT 22/05 A2963 RMK A01 T02170051  RH  034%=      5-min Rain = 0
KST2 182237Z 25017KT 22/06 A2964 RMK A01 T02170055  RH  035%=      5-min Rain = 0
KST2 182238Z 26016G21KT 22/06 A2964 RMK A01 T02160057  RH  035%=      5-min Rain = 0
KST2 182239Z 25018KT 22/05 A2964 RMK A01 T02150054  RH  035%=      5-min Rain = 0
KST2 182240Z 26016KT 22/06 A2964 RMK A01 T02150055  RH  035%=      5-min Rain = 0
KST2 182241Z 25016KT 21/06 A2964 RMK A01 T02140055  RH  035%=      5-min Rain = 0
KST2 182242Z 25014KT 21/06 A2964 RMK A01 T02140056  RH  036%=      5-min Rain = 0
KST2 182243Z 26015KT 21/06 A2964 RMK A01 T02130057  RH  036%=      5-min Rain = 0
KST2 182244Z 25016KT 21/06 A2964 RMK A01 T02130056  RH  036%=      5-min Rain = 0
KST2 182245Z 25016KT 21/06 A2964 RMK A01 T02120056  RH  036%=      5-min Rain = 0
KST2 182246Z 25016KT 21/05 A2964 RMK A01 T02120054  RH  036%=      5-min Rain = 0
KST2 182247Z 25015KT 21/05 A2964 RMK A01 T02120054  RH  036%=      5-min Rain = 0
KST2 182248Z 25013KT 21/06 A2964 RMK A01 T02120059  RH  037%=      5-min Rain = 0
KST2 182249Z 25013KT 21/06 A2964 RMK A01 T02110057  RH  037%=      5-min Rain = 0
KST2 182250Z 25012KT 21/06 A2964 RMK A01 T02100057  RH  037%=      5-min Rain = 0
KST2 182251Z 25014KT 21/06 A2964 RMK A01 T02100058  RH  037%=      5-min Rain = 0
KST2 182252Z 25013KT 21/06 A2964 RMK A01 T02090058  RH  037%=      5-min Rain = 0
KST2 182253Z 25012KT 21/06 A2963 RMK A01 T02090057  RH  037%=      5-min Rain = 0
KST2 182254Z 25011KT 21/06 A2963 RMK A01 T02090059  RH  038%=      5-min Rain = 0
KST2 182255Z 25012KT 21/06 A2963 RMK A01 T02080057  RH  037%=      5-min Rain = 0
KST2 182256Z 25012KT 21/06 A2963 RMK A01 T02070060  RH  038%=      5-min Rain = 0
KST2 182257Z 25013KT 21/06 A2963 RMK A01 T02070057  RH  037%=      5-min Rain = 0
KST2 182258Z 25013KT 21/06 A2963 RMK A01 T02070055  RH  037%=      5-min Rain = 0
KST2 182259Z 25014KT 21/05 A2963 RMK A01 T02080054  RH  037%=      5-min Rain = 0
KST2 182300Z 25013KT 21/06 A2963 RMK A01 T02080055  RH  037%=      5-min Rain = 0
KST2 182301Z 25014KT 21/05 A2963 RMK A01 T02080054  RH  036%=      5-min Rain = 0
KST2 182302Z 25014KT 21/06 A2963 RMK A01 T02080055  RH  037%=      5-min Rain = 0
KST2 182303Z 25015KT 21/05 A2963 RMK A01 T02090053  RH  036%=      5-min Rain = 0
KST2 182304Z 25014KT 21/05 A2963 RMK A01 T02090052  RH  036%=      5-min Rain = 0
KST2 182305Z 25014KT 21/05 A2963 RMK A01 T02090053  RH  036%=      5-min Rain = 0
KST2 182306Z 25015KT 21/06 A2963 RMK A01 T02080055  RH  037%=      5-min Rain = 0
KST2 182307Z 25015KT 21/05 A2963 RMK A01 T02080053  RH  036%=      5-min Rain = 0
KST2 182308Z 25013KT 21/05 A2963 RMK A01 T02080054  RH  037%=      5-min Rain = 0
KST2 182309Z 25014KT 21/05 A2963 RMK A01 T02070054  RH  037%=      5-min Rain = 0
KST2 182310Z 25013KT 21/06 A2963 RMK A01 T02060056  RH  037%=      5-min Rain = 0
KST2 182311Z 25013KT 21/05 A2963 RMK A01 T02060054  RH  037%=      5-min Rain = 0
KST2 182312Z 24013KT 21/06 A2963 RMK A01 T02050055  RH  037%=      5-min Rain = 0
KST2 182313Z 24013KT 21/05 A2963 RMK A01 T02050053  RH  037%=      5-min Rain = 0
KST2 182314Z 24013KT 21/05 A2963 RMK A01 T02050053  RH  037%=      5-min Rain = 0
KST2 182315Z 25012KT 21/05 A2963 RMK A01 T02050054  RH  037%=      5-min Rain = 0
KST2 182316Z 25013KT 20/06 A2963 RMK A01 T02040056  RH  038%=      5-min Rain = 0
KST2 182317Z 24013KT 20/06 A2963 RMK A01 T02030056  RH  038%=      5-min Rain = 0
KST2 182318Z 24012KT 20/05 A2963 RMK A01 T02030054  RH  038%=      5-min Rain = 0
KST2 182319Z 24013KT 20/05 A2963 RMK A01 T02030054  RH  038%=      5-min Rain = 0
KST2 182320Z 25012KT 20/05 A2963 RMK A01 T02030053  RH  037%=      5-min Rain = 0
KST2 182321Z 25012KT 20/06 A2963 RMK A01 T02030056  RH  038%=      5-min Rain = 0
KST2 182322Z 25013KT 20/05 A2963 RMK A01 T02020052  RH  037%=      5-min Rain = 0
KST2 182323Z 25012KT 20/05 A2963 RMK A01 T02040054  RH  038%=      5-min Rain = 0
KST2 182324Z 25013KT 20/06 A2964 RMK A01 T02030055  RH  038%=      5-min Rain = 0
KST2 182325Z 25014KT 20/06 A2964 RMK A01 T02020056  RH  038%=      5-min Rain = 0
KST2 182326Z 25016G24KT 20/05 A2964 RMK A01 T02020052  RH  038%=      5-min Rain = 0
KST2 182327Z 26016G22KT 20/05 A2964 RMK A01 T02040048  RH  036%=      5-min Rain = 0
KST2 182328Z 26014KT 21/05 A2964 RMK A01 T02060053  RH  037%=      5-min Rain = 0
KST2 182329Z 26014KT 20/06 A2964 RMK A01 T02040055  RH  038%=      5-min Rain = 0
KST2 182330Z 26013KT 20/06 A2964 RMK A01 T02030055  RH  038%=      5-min Rain = 0
KST2 182331Z 26012KT 20/06 A2964 RMK A01 T02020057  RH  039%=      5-min Rain = 0
KST2 182332Z 26013KT 20/06 A2964 RMK A01 T02010057  RH  039%=      5-min Rain = 0
KST2 182333Z 26014KT 20/06 A2964 RMK A01 T02000055  RH  039%=      5-min Rain = 0
KST2 182334Z 26013KT 20/06 A2964 RMK A01 T02000056  RH  039%=      5-min Rain = 0
KST2 182335Z 26013KT 20/06 A2964 RMK A01 T02000057  RH  039%=      5-min Rain = 0
KST2 182336Z 26014KT 20/06 A2964 RMK A01 T01990058  RH  040%=      5-min Rain = 0
KST2 182337Z 26014KT 20/06 A2964 RMK A01 T01980055  RH  039%=      5-min Rain = 0
KST2 182338Z 26013KT 20/06 A2964 RMK A01 T01990055  RH  039%=      5-min Rain = 0
KST2 182339Z 26012KT 20/06 A2964 RMK A01 T01990057  RH  039%=      5-min Rain = 0
KST2 182340Z 26012KT 20/06 A2964 RMK A01 T01970059  RH  040%=      5-min Rain = 0
KST2 182341Z 26012KT 20/06 A2964 RMK A01 T01970057  RH  040%=      5-min Rain = 0
KST2 182342Z 26012KT 20/06 A2964 RMK A01 T01960059  RH  041%=      5-min Rain = 0
KST2 182343Z 26013KT 20/06 A2964 RMK A01 T01950057  RH  040%=      5-min Rain = 0
KST2 182344Z 26012KT 20/06 A2964 RMK A01 T01950056  RH  040%=      5-min Rain = 0
KST2 182345Z 26012KT 20/06 A2964 RMK A01 T01950058  RH  041%=      5-min Rain = 0
KST2 182346Z 26011KT 19/06 A2964 RMK A01 T01940059  RH  041%=      5-min Rain = 0
KST2 182347Z 26011KT 19/06 A2964 RMK A01 T01930060  RH  042%=      5-min Rain = 0
KST2 182348Z 27011KT 19/06 A2964 RMK A01 T01920061  RH  042%=      5-min Rain = 0
KST2 182349Z 27012KT 19/06 A2964 RMK A01 T01910061  RH  043%=      5-min Rain = 0
KST2 182350Z 27012KT 19/06 A2964 RMK A01 T01920057  RH  041%=      5-min Rain = 0
KST2 182351Z 27011KT 19/06 A2964 RMK A01 T01930059  RH  042%=      5-min Rain = 0
KST2 182352Z 26011KT 19/06 A2964 RMK A01 T01920061  RH  042%=      5-min Rain = 0
KST2 182353Z 26011KT 19/06 A2964 RMK A01 T01910059  RH  042%=      5-min Rain = 0
KST2 182354Z 27011KT 19/06 A2964 RMK A01 T01920057  RH  041%=      5-min Rain = 0
KST2 182355Z 26010KT 19/06 A2964 RMK A01 T01930058  RH  041%=      5-min Rain = 0
KST2 182356Z 26010KT 19/06 A2964 RMK A01 T01920061  RH  042%=      5-min Rain = 0
KST2 182357Z 27010KT 19/06 A2964 RMK A01 T01910060  RH  042%=      5-min Rain = 0
KST2 182358Z 27010KT 19/06 A2964 RMK A01 T01900060  RH  042%=      5-min Rain = 0
KST2 182359Z 27010KT 19/06 A2964 RMK A01 T01900060  RH  042%=      5-min Rain = 0
KST2 190000Z 26009KT 19/06 A2964 RMK A01 T01900061  RH  043%=      5-min Rain = 0
KST2 190001Z 27009KT 19/06 A2964 RMK A01 T01880061  RH  043%=      5-min Rain = 0
KST2 190002Z 26009KT 19/06 A2964 RMK A01 T01880059  RH  043%=      5-min Rain = 0
KST2 190003Z 27009KT 19/06 A2964 RMK A01 T01880058  RH  042%=      5-min Rain = 0
KST2 190004Z 27009KT 19/06 A2964 RMK A01 T01890060  RH  043%=      5-min Rain = 0
KST2 190005Z 27009KT 19/06 A2964 RMK A01 T01880060  RH  043%=      5-min Rain = 0
KST2 190006Z 27008KT 19/06 A2964 RMK A01 T01870062  RH  044%=      5-min Rain = 0
KST2 190007Z 27009KT 19/06 A2964 RMK A01 T01870060  RH  043%=      5-min Rain = 0
KST2 190008Z 27008KT 19/06 A2964 RMK A01 T01860060  RH  044%=      5-min Rain = 0
KST2 190009Z 26008KT 19/06 A2964 RMK A01 T01860062  RH  044%=      5-min Rain = 0
KST2 190010Z 26009KT 19/06 A2965 RMK A01 T01850063  RH  045%=      5-min Rain = 0
KST2 190011Z 26008KT 18/06 A2965 RMK A01 T01840062  RH  045%=      5-min Rain = 0
KST2 190012Z 26009KT 18/06 A2965 RMK A01 T01840062  RH  045%=      5-min Rain = 0
KST2 190013Z 26009KT 18/06 A2965 RMK A01 T01830062  RH  045%=      5-min Rain = 0
KST2 190014Z 26009KT 18/06 A2965 RMK A01 T01830062  RH  045%=      5-min Rain = 0
KST2 190015Z 26009KT 18/06 A2965 RMK A01 T01830062  RH  045%=      5-min Rain = 0
KST2 190016Z 26008KT 18/06 A2965 RMK A01 T01830063  RH  046%=      5-min Rain = 0
KST2 190017Z 26009KT 18/06 A2965 RMK A01 T01820064  RH  046%=      5-min Rain = 0
KST2 190018Z 26009KT 18/06 A2965 RMK A01 T01810064  RH  046%=      5-min Rain = 0
KST2 190019Z 26009KT 18/06 A2965 RMK A01 T01810064  RH  046%=      5-min Rain = 0
KST2 190020Z 26009KT 18/06 A2965 RMK A01 T01800064  RH  047%=      5-min Rain = 0
KST2 190021Z 26008KT 18/07 A2965 RMK A01 T01800065  RH  047%=      5-min Rain = 0
KST2 190022Z 26008KT 18/07 A2965 RMK A01 T01790066  RH  047%=      5-min Rain = 0
KST2 190023Z 26008KT 18/07 A2965 RMK A01 T01790065  RH  047%=      5-min Rain = 0
KST2 190024Z 26008KT 18/07 A2965 RMK A01 T01790065  RH  047%=      5-min Rain = 0
KST2 190025Z 26009KT 18/07 A2965 RMK A01 T01790066  RH  048%=      5-min Rain = 0
KST2 190026Z 26009KT 18/07 A2965 RMK A01 T01780067  RH  048%=      5-min Rain = 0
KST2 190027Z 26008KT 18/06 A2965 RMK A01 T01770064  RH  048%=      5-min Rain = 0
KST2 190028Z 26008KT 18/07 A2965 RMK A01 T01770065  RH  048%=      5-min Rain = 0
KST2 190029Z 26008KT 18/07 A2965 RMK A01 T01770066  RH  048%=      5-min Rain = 0
KST2 190030Z 27008KT 18/07 A2965 RMK A01 T01770066  RH  048%=      5-min Rain = 0
KST2 190031Z 26007KT 18/07 A2965 RMK A01 T01760066  RH  048%=      5-min Rain = 0
KST2 190032Z 26007KT 18/07 A2965 RMK A01 T01760066  RH  049%=      5-min Rain = 0
KST2 190033Z 26008KT 18/07 A2965 RMK A01 T01750068  RH  049%=      5-min Rain = 0
KST2 190034Z 26007KT 18/07 A2965 RMK A01 T01750068  RH  049%=      5-min Rain = 0
KST2 190035Z 26008KT 17/07 A2965 RMK A01 T01740067  RH  049%=      5-min Rain = 0
KST2 190036Z 26008KT 17/07 A2965 RMK A01 T01740068  RH  050%=      5-min Rain = 0
KST2 190037Z 26009KT 17/07 A2966 RMK A01 T01740067  RH  050%=      5-min Rain = 0
KST2 190038Z 26010KT 17/07 A2966 RMK A01 T01730066  RH  049%=      5-min Rain = 0
KST2 190039Z 25009KT 17/07 A2966 RMK A01 T01730065  RH  049%=      5-min Rain = 0
KST2 190040Z 26009KT 17/06 A2966 RMK A01 T01740063  RH  048%=      5-min Rain = 0
KST2 190041Z 26010KT 18/06 A2966 RMK A01 T01750063  RH  048%=      5-min Rain = 0
KST2 190042Z 25011KT 18/06 A2966 RMK A01 T01760063  RH  047%=      5-min Rain = 0
KST2 190043Z 26011KT 18/06 A2966 RMK A01 T01770061  RH  046%=      5-min Rain = 0
KST2 190044Z 26010KT 18/06 A2966 RMK A01 T01780060  RH  046%=      5-min Rain = 0
KST2 190045Z 26011KT 18/06 A2966 RMK A01 T01790060  RH  046%=      5-min Rain = 0
KST2 190046Z 25011KT 18/06 A2966 RMK A01 T01800059  RH  045%=      5-min Rain = 0
KST2 190047Z 25011KT 18/06 A2966 RMK A01 T01810059  RH  045%=      5-min Rain = 0
KST2 190048Z 25011KT 18/06 A2966 RMK A01 T01810058  RH  044%=      5-min Rain = 0
KST2 190049Z 25010KT 18/06 A2966 RMK A01 T01820060  RH  045%=      5-min Rain = 0
KST2 190050Z 25010KT 18/06 A2966 RMK A01 T01810060  RH  045%=      5-min Rain = 0
KST2 190051Z 25010KT 18/06 A2966 RMK A01 T01810059  RH  045%=      5-min Rain = 0
KST2 190052Z 25010KT 18/06 A2966 RMK A01 T01810060  RH  045%=      5-min Rain = 0
KST2 190053Z 25009KT 18/06 A2966 RMK A01 T01800060  RH  045%=      5-min Rain = 0
KST2 190054Z 25009KT 18/06 A2966 RMK A01 T01800061  RH  046%=      5-min Rain = 0
KST2 190055Z 25009KT 18/06 A2967 RMK A01 T01790061  RH  046%=      5-min Rain = 0
KST2 190056Z 25009KT 18/06 A2967 RMK A01 T01790061  RH  046%=      5-min Rain = 0
KST2 190057Z 25010KT 18/06 A2967 RMK A01 T01790057  RH  045%=      5-min Rain = 0
KST2 190058Z 25010KT 18/06 A2967 RMK A01 T01800056  RH  044%=      5-min Rain = 0
KST2 190059Z 25012KT 18/06 A2967 RMK A01 T01810058  RH  044%=      5-min Rain = 0
KST2 190100Z 26011KT 18/06 A2967 RMK A01 T01820058  RH  044%=      5-min Rain = 0
KST2 190101Z 25016KT 18/05 A2967 RMK A01 T01820054  RH  043%=      5-min Rain = 0
KST2 190102Z 26017G24KT 19/05 A2968 RMK A01 T01860050  RH  041%=      5-min Rain = 0
KST2 190103Z 26015KT 19/05 A2968 RMK A01 T01880052  RH  041%=      5-min Rain = 0
KST2 190104Z 27016KT 19/06 A2968 RMK A01 T01880055  RH  042%=      5-min Rain = 0
KST2 190105Z 28020KT 19/05 A2968 RMK A01 T01880050  RH  040%=      5-min Rain = 0
KST2 190106Z 28017KT 19/05 A2968 RMK A01 T01900051  RH  040%=      5-min Rain = 0
KST2 190107Z 28018KT 19/05 A2968 RMK A01 T01900053  RH  041%=      5-min Rain = 0
KST2 190108Z 29016KT 19/06 A2969 RMK A01 T01890056  RH  042%=      5-min Rain = 0
KST2 190109Z 28017G23KT 19/06 A2969 RMK A01 T01860058  RH  043%=      5-min Rain = 0
KST2 190110Z 28024G30KT 19/05 A2969 RMK A01 T01850052  RH  042%=      5-min Rain = 0
KST2 190111Z 28025G30KT 19/05 A2969 RMK A01 T01870047  RH  040%=      5-min Rain = 0
KST2 190112Z 28031G48KT 19/05 A2969 RMK A01 T01870050  RH  040%=      5-min Rain = 0
KST2 190113Z 28042G48KT 19/04 A2969 RMK A01 T01870044  RH  039%=      5-min Rain = 0
KST2 190114Z 28035G45KT 19/05 A297 RMK A01 T01860046  RH  040%=      5-min Rain = 0
KST2 190115Z 28036G45KT 18/05 A297 RMK A01 T01820053  RH  043%=      5-min Rain = 0
KST2 190116Z 28040G47KT 18/06 A297 RMK A01 T01760055  RH  045%=      5-min Rain = 0
KST2 190117Z 28035G42KT 17/06 A2971 RMK A01 T01730056  RH  046%=      5-min Rain = 0
KST2 190118Z 28028G39KT 17/06 A2972 RMK A01 T01700060  RH  048%=      5-min Rain = 0
KST2 190119Z 28034G41KT 17/06 A2971 RMK A01 T01680058  RH  048%=      5-min Rain = 0
KST2 190120Z 28031G36KT 17/06 A2971 RMK A01 T01670060  RH  049%=      5-min Rain = 0
KST2 190121Z 27026KT 17/06 A2971 RMK A01 T01660062  RH  050%=      5-min Rain = 0
KST2 190122Z 27025KT 16/06 A2971 RMK A01 T01640063  RH  051%=      5-min Rain = 0
KST2 190123Z 27024G30KT 16/07 A2971 RMK A01 T01620065  RH  052%=      5-min Rain = 0
KST2 190124Z 27024G29KT 16/06 A2971 RMK A01 T01620063  RH  052%=      5-min Rain = 0
KST2 190125Z 27022KT 16/06 A2971 RMK A01 T01610064  RH  052%=      5-min Rain = 0
KST2 190126Z 27023G29KT 16/06 A2971 RMK A01 T01610064  RH  053%=      5-min Rain = 0
KST2 190127Z 27020KT 16/07 A2971 RMK A01 T01600066  RH  053%=      5-min Rain = 0
KST2 190128Z 27019KT 16/07 A2971 RMK A01 T01590066  RH  054%=      5-min Rain = 0
KST2 190129Z 27020KT 16/07 A2971 RMK A01 T01580066  RH  054%=      5-min Rain = 0
KST2 190130Z 27019KT 16/07 A2971 RMK A01 T01580066  RH  055%=      5-min Rain = 0
KST2 190131Z 26017KT 16/07 A297 RMK A01 T01580067  RH  055%=      5-min Rain = 0
KST2 190132Z 26018KT 16/07 A297 RMK A01 T01570069  RH  056%=      5-min Rain = 0
KST2 190133Z 25018KT 16/07 A2971 RMK A01 T01560068  RH  056%=      5-min Rain = 0
KST2 190134Z 25017KT 16/07 A2971 RMK A01 T01560070  RH  057%=      5-min Rain = 0
KST2 190135Z 24016G22KT 15/07 A297 RMK A01 T01540071  RH  057%=      5-min Rain = 0
KST2 190136Z 24019KT 15/07 A297 RMK A01 T01530070  RH  058%=      5-min Rain = 0
KST2 190137Z 24022G27KT 15/07 A2971 RMK A01 T01540066  RH  056%=      5-min Rain = 0
KST2 190138Z 25021G26KT 16/06 A2972 RMK A01 T01570063  RH  054%=      5-min Rain = 0
KST2 190139Z 26019KT 16/06 A2972 RMK A01 T01580063  RH  053%=      5-min Rain = 0
KST2 190140Z 26023KT 16/06 A2972 RMK A01 T01600062  RH  052%=      5-min Rain = 0
KST2 190141Z 25023G28KT 16/06 A2972 RMK A01 T01600062  RH  052%=      5-min Rain = 0
KST2 190142Z 25021KT 16/06 A2971 RMK A01 T01600062  RH  052%=      5-min Rain = 0
KST2 190143Z 24017KT 16/06 A2971 RMK A01 T01600064  RH  053%=      5-min Rain = 0
KST2 190144Z 24018G24KT 16/07 A2971 RMK A01 T01580066  RH  054%=      5-min Rain = 0
KST2 190145Z 24018G23KT 16/07 A2971 RMK A01 T01570065  RH  054%=      5-min Rain = 0
KST2 190146Z 24020G28KT 16/07 A2971 RMK A01 T01570065  RH  054%=      5-min Rain = 0
KST2 190147Z 25024G29KT 16/06 A2971 RMK A01 T01570057  RH  052%=      5-min Rain = 0
KST2 190148Z 25019KT 16/05 A2971 RMK A01 T01580054  RH  050%=      5-min Rain = 0
KST2 190149Z 25020KT 16/05 A2971 RMK A01 T01580054  RH  050%=      5-min Rain = 0
KST2 190150Z 25022KT 16/05 A2971 RMK A01 T01580051  RH  049%=      5-min Rain = 0
KST2 190151Z 25027G34KT 16/05 A2971 RMK A01 T01600047  RH  047%=      5-min Rain = 0
KST2 190152Z 25025G33KT 16/04 A2971 RMK A01 T01640044  RH  045%=      5-min Rain = 0
KST2 190153Z 25022KT 17/05 A2971 RMK A01 T01650049  RH  046%=      5-min Rain = 0
KST2 190154Z 25026G32KT 17/05 A2971 RMK A01 T01650047  RH  046%=      5-min Rain = 0
KST2 190155Z 25024G32KT 17/05 A2971 RMK A01 T01660049  RH  046%=      5-min Rain = 0
KST2 190156Z 25022KT 17/05 A2972 RMK A01 T01650048  RH  046%=      5-min Rain = 0
KST2 190157Z 25026G31KT 17/05 A2971 RMK A01 T01650045  RH  045%=      5-min Rain = 0
KST2 190158Z 25023KT 17/04 A2971 RMK A01 T01670043  RH  044%=      5-min Rain = 0
KST2 190159Z 25022KT 17/05 A2971 RMK A01 T01680045  RH  044%=      5-min Rain = 0
KST2 190200Z 26020KT 17/05 A2972 RMK A01 T01670046  RH  044%=      5-min Rain = 0
KST2 190201Z 25019KT 17/05 A2971 RMK A01 T01660047  RH  045%=      5-min Rain = 0
KST2 190202Z 25021KT 17/05 A2971 RMK A01 T01650045  RH  045%=      5-min Rain = 0
KST2 190203Z 25021KT 17/04 A2971 RMK A01 T01660040  RH  043%=      5-min Rain = 0
KST2 190204Z 26021KT 17/04 A2971 RMK A01 T01670038  RH  042%=      5-min Rain = 0
KST2 190205Z 26017KT 17/04 A2972 RMK A01 T01680043  RH  043%=      5-min Rain = 0
KST2 190206Z 27016KT 17/04 A2972 RMK A01 T01660044  RH  044%=      5-min Rain = 0
KST2 190207Z 26016G21KT 16/04 A2972 RMK A01 T01640044  RH  045%=      5-min Rain = 0
KST2 190208Z 26022G27KT 16/04 A2971 RMK A01 T01630038  RH  043%=      5-min Rain = 0
KST2 190209Z 26019G24KT 17/03 A297 RMK A01 T01670025  RH  039%=      5-min Rain = 0
KST2 190210Z 26017KT 17/03 A297 RMK A01 T01690034  RH  040%=      5-min Rain = 0
KST2 190211Z 26014KT 17/03 A297 RMK A01 T01680034  RH  041%=      5-min Rain = 0
KST2 190212Z 26014KT 17/03 A2969 RMK A01 T01670031  RH  040%=      5-min Rain = 0
KST2 190213Z 26011KT 17/03 A2969 RMK A01 T01670032  RH  041%=      5-min Rain = 0
KST2 190214Z 26011KT 17/03 A2969 RMK A01 T01660034  RH  041%=      5-min Rain = 0
KST2 190215Z 26012KT 16/04 A2969 RMK A01 T01640035  RH  042%=      5-min Rain = 0
KST2 190216Z 26012KT 16/03 A2969 RMK A01 T01640027  RH  040%=      5-min Rain = 0
KST2 190217Z 26011KT 16/03 A2969 RMK A01 T01640031  RH  041%=      5-min Rain = 0
KST2 190218Z 26011KT 16/03 A2969 RMK A01 T01640029  RH  040%=      5-min Rain = 0
KST2 190219Z 26012KT 16/03 A2969 RMK A01 T01630029  RH  040%=      5-min Rain = 0
KST2 190220Z 25012KT 16/03 A2969 RMK A01 T01630025  RH  040%=      5-min Rain = 0
KST2 190221Z 25013KT 16/02 A2969 RMK A01 T01630024  RH  039%=      5-min Rain = 0
KST2 190222Z 25011KT 16/02 A2969 RMK A01 T01630023  RH  039%=      5-min Rain = 0
KST2 190223Z 25012KT 16/03 A2969 RMK A01 T01630025  RH  039%=      5-min Rain = 0
KST2 190224Z 25012KT 16/03 A2969 RMK A01 T01620025  RH  040%=      5-min Rain = 0
KST2 190225Z 25012KT 16/02 A2969 RMK A01 T01620022  RH  039%=      5-min Rain = 0
KST2 190226Z 25012KT 16/02 A2969 RMK A01 T01620024  RH  040%=      5-min Rain = 0
KST2 190227Z 24012KT 16/03 A297 RMK A01 T01610025  RH  040%=      5-min Rain = 0
KST2 190228Z 23011KT 16/03 A297 RMK A01 T01600026  RH  041%=      5-min Rain = 0
KST2 190229Z 22010KT 16/03 A297 RMK A01 T01580028  RH  041%=      5-min Rain = 0
KST2 190230Z 22011KT 16/04 A297 RMK A01 T01560037  RH  045%=      5-min Rain = 0
KST2 190231Z 22011KT 15/04 A297 RMK A01 T01530044  RH  048%=      5-min Rain = 0
KST2 190232Z 22012KT 15/05 A297 RMK A01 T01500048  RH  050%=      5-min Rain = 0
KST2 190233Z 22012KT 15/05 A297 RMK A01 T01480049  RH  052%=      5-min Rain = 0
KST2 190234Z 23011KT 15/05 A297 RMK A01 T01470051  RH  052%=      5-min Rain = 0
KST2 190235Z 23010KT 15/05 A297 RMK A01 T01460051  RH  053%=      5-min Rain = 0
KST2 190236Z 23011KT 15/05 A2971 RMK A01 T01450053  RH  054%=      5-min Rain = 0
KST2 190237Z 23011KT 14/06 A2971 RMK A01 T01430055  RH  055%=      5-min Rain = 0
KST2 190238Z 23010KT 14/06 A2971 RMK A01 T01420055  RH  056%=      5-min Rain = 0
KST2 190239Z 23010KT 14/06 A2971 RMK A01 T01400055  RH  057%=      5-min Rain = 0
KST2 190240Z 23011KT 14/06 A2971 RMK A01 T01400055  RH  057%=      5-min Rain = 0
KST2 190241Z 23011KT 14/06 A2971 RMK A01 T01400055  RH  057%=      5-min Rain = 0
KST2 190242Z 23010KT 14/06 A2971 RMK A01 T01380056  RH  057%=      5-min Rain = 0
KST2 190243Z 23010KT 14/06 A2971 RMK A01 T01370057  RH  058%=      5-min Rain = 0
KST2 190244Z 22011KT 14/06 A2972 RMK A01 T01370056  RH  058%=      5-min Rain = 0
KST2 190245Z 23010KT 14/06 A2971 RMK A01 T01360056  RH  058%=      5-min Rain = 0
KST2 190246Z 23010KT 14/06 A2971 RMK A01 T01360057  RH  059%=      5-min Rain = 0
KST2 190247Z 22010KT 14/06 A2972 RMK A01 T01350056  RH  059%=      5-min Rain = 0
KST2 190248Z 23010KT 14/06 A2972 RMK A01 T01350056  RH  059%=      5-min Rain = 0
KST2 190249Z 23010KT 14/06 A2972 RMK A01 T01350057  RH  059%=      5-min Rain = 0
KST2 190250Z 23010KT 13/06 A2972 RMK A01 T01340056  RH  059%=      5-min Rain = 0
KST2 190251Z 23010KT 13/06 A2972 RMK A01 T01340056  RH  059%=      5-min Rain = 0
KST2 190252Z 23010KT 13/06 A2972 RMK A01 T01340057  RH  059%=      5-min Rain = 0
KST2 190253Z 23010KT 13/06 A2972 RMK A01 T01340058  RH  060%=      5-min Rain = 0
KST2 190254Z 23010KT 13/06 A2972 RMK A01 T01330057  RH  060%=      5-min Rain = 0
KST2 190255Z 23010KT 13/06 A2972 RMK A01 T01330058  RH  060%=      5-min Rain = 0
KST2 190256Z 23011KT 13/06 A2972 RMK A01 T01320057  RH  061%=      5-min Rain = 0
KST2 190257Z 23011KT 13/06 A2972 RMK A01 T01320056  RH  060%=      5-min Rain = 0
KST2 190258Z 23011KT 13/06 A2972 RMK A01 T01320055  RH  059%=      5-min Rain = 0
KST2 190259Z 23011KT 13/06 A2972 RMK A01 T01330055  RH  059%=      5-min Rain = 0
KST2 190300Z 23011KT 13/05 A2972 RMK A01 T01340054  RH  058%=      5-min Rain = 0
KST2 190301Z 23010KT 13/05 A2971 RMK A01 T01340054  RH  058%=      5-min Rain = 0
KST2 190302Z 23010KT 13/06 A2971 RMK A01 T01340055  RH  059%=      5-min Rain = 0
KST2 190303Z 23011KT 13/06 A2971 RMK A01 T01340055  RH  059%=      5-min Rain = 0
KST2 190304Z 23011KT 13/06 A2971 RMK A01 T01340055  RH  059%=      5-min Rain = 0
KST2 190305Z 23010KT 13/06 A2971 RMK A01 T01330055  RH  059%=      5-min Rain = 0
KST2 190306Z 23009KT 13/05 A2971 RMK A01 T01330054  RH  059%=      5-min Rain = 0
KST2 190307Z 23010KT 13/06 A2971 RMK A01 T01330055  RH  059%=      5-min Rain = 0
KST2 190308Z 23010KT 13/05 A2971 RMK A01 T01330053  RH  058%=      5-min Rain = 0
KST2 190309Z 23010KT 13/05 A2971 RMK A01 T01330054  RH  059%=      5-min Rain = 0
KST2 190310Z 23010KT 13/05 A2971 RMK A01 T01330053  RH  059%=      5-min Rain = 0
KST2 190311Z 23009KT 13/05 A2971 RMK A01 T01330053  RH  058%=      5-min Rain = 0
KST2 190312Z 24010KT 13/05 A2971 RMK A01 T01320053  RH  059%=      5-min Rain = 0
KST2 190313Z 24009KT 13/05 A2971 RMK A01 T01320053  RH  058%=      5-min Rain = 0
KST2 190314Z 24009KT 13/05 A2971 RMK A01 T01320053  RH  059%=      5-min Rain = 0
KST2 190315Z 24009KT 13/05 A2971 RMK A01 T01310053  RH  059%=      5-min Rain = 0
KST2 190316Z 24008KT 13/05 A2971 RMK A01 T01300054  RH  060%=      5-min Rain = 0
KST2 190317Z 24009KT 13/05 A2971 RMK A01 T01290054  RH  060%=      5-min Rain = 0
KST2 190318Z 24009KT 13/05 A2971 RMK A01 T01280053  RH  060%=      5-min Rain = 0
KST2 190319Z 24009KT 13/05 A2971 RMK A01 T01280053  RH  061%=      5-min Rain = 0
KST2 190320Z 24009KT 13/05 A2971 RMK A01 T01270053  RH  061%=      5-min Rain = 0
KST2 190321Z 24008KT 13/05 A2971 RMK A01 T01270054  RH  061%=      5-min Rain = 0
KST2 190322Z 24009KT 13/05 A2971 RMK A01 T01260054  RH  062%=      5-min Rain = 0
KST2 190323Z 24009KT 13/05 A2971 RMK A01 T01250053  RH  062%=      5-min Rain = 0
KST2 190324Z 24009KT 13/05 A2971 RMK A01 T01250054  RH  062%=      5-min Rain = 0
KST2 190325Z 24009KT 13/05 A2971 RMK A01 T01250054  RH  062%=      5-min Rain = 0
KST2 190326Z 24009KT 12/05 A2971 RMK A01 T01240054  RH  062%=      5-min Rain = 0
KST2 190327Z 25009KT 12/05 A2972 RMK A01 T01240052  RH  062%=      5-min Rain = 0
KST2 190328Z 27009KT 12/05 A2973 RMK A01 T01240052  RH  061%=      5-min Rain = 0
KST2 190329Z 33022G31KT 12/05 A2976 RMK A01 T01240051  RH  061%=      5-min Rain = 0
KST2 190330Z 34025KT 12/04 A2976 RMK A01 T01170035  RH  057%=      5-min Rain = 0
KST2 190331Z 34025KT 11/03 A2977 RMK A01 T01060026  RH  058%=      5-min Rain = 0
KST2 190332Z 33023G28KT 10/03 A2977 RMK A01 T01000026  RH  060%=      5-min Rain = 0
KST2 190333Z 33022G27KT 10/03 A2977 RMK A01 T00960025  RH  061%=      5-min Rain = 0
KST2 190334Z 33021KT 09/03 A2978 RMK A01 T00940026  RH  062%=      5-min Rain = 0
KST2 190335Z 33025G30KT 09/03 A2978 RMK A01 T00930025  RH  063%=      5-min Rain = 0
KST2 190336Z 33024G29KT 09/03 A2978 RMK A01 T00910025  RH  063%=      5-min Rain = 0
KST2 190337Z 33027G32KT 09/03 A2978 RMK A01 T00900026  RH  064%=      5-min Rain = 0
KST2 190338Z 34023G28KT 09/03 A2978 RMK A01 T00890025  RH  064%=      5-min Rain = 0
KST2 190339Z 34023KT 09/03 A2978 RMK A01 T00880026  RH  065%=      5-min Rain = 0
KST2 190340Z 34024G29KT 09/03 A2979 RMK A01 T00870025  RH  065%=      5-min Rain = 0
KST2 190341Z 34026KT 09/03 A2979 RMK A01 T00860025  RH  066%=      5-min Rain = 0
KST2 190342Z 35022G30KT 09/03 A2979 RMK A01 T00850026  RH  066%=      5-min Rain = 0
KST2 190343Z 34021G26KT 08/03 A2979 RMK A01 T00840026  RH  067%=      5-min Rain = 0
KST2 190344Z 35024KT 08/03 A2979 RMK A01 T00830025  RH  067%=      5-min Rain = 0
KST2 190345Z 34021KT 08/03 A2979 RMK A01 T00830025  RH  067%=      5-min Rain = 0
KST2 190346Z 35018G23KT 08/03 A2979 RMK A01 T00820025  RH  067%=      5-min Rain = 0
KST2 190347Z 34018KT 08/03 A2979 RMK A01 T00820027  RH  068%=      5-min Rain = 0
KST2 190348Z 35021KT 08/03 A2979 RMK A01 T00810026  RH  068%=      5-min Rain = 0
KST2 190349Z 34021KT 08/03 A2979 RMK A01 T00810025  RH  068%=      5-min Rain = 0
KST2 190350Z 35018KT 08/03 A2979 RMK A01 T00810025  RH  068%=      5-min Rain = 0
KST2 190351Z 34017KT 08/03 A298 RMK A01 T00810026  RH  068%=      5-min Rain = 0
KST2 190352Z 34016KT 08/03 A298 RMK A01 T00800026  RH  069%=      5-min Rain = 0
KST2 190353Z 34017KT 08/03 A298 RMK A01 T00800026  RH  069%=      5-min Rain = 0
KST2 190354Z 34016KT 08/03 A298 RMK A01 T00800027  RH  069%=      5-min Rain = 0
KST2 190355Z 33017KT 08/03 A298 RMK A01 T00790027  RH  070%=      5-min Rain = 0
KST2 190356Z 33019KT 08/03 A2981 RMK A01 T00790027  RH  069%=      5-min Rain = 0
KST2 190357Z 33021KT 08/03 A2981 RMK A01 T00790025  RH  069%=      5-min Rain = 0
KST2 190358Z 34023KT 08/03 A2981 RMK A01 T00790025  RH  068%=      5-min Rain = 0
KST2 190359Z 34026G31KT 08/02 A2981 RMK A01 T00790024  RH  068%=      5-min Rain = 0
KST2 190400Z 34024G29KT 08/02 A2981 RMK A01 T00780024  RH  068%=      5-min Rain = 0
KST2 190401Z 34024G29KT 08/02 A2981 RMK A01 T00780024  RH  069%=      5-min Rain = 0
KST2 190402Z 34023G28KT 08/02 A2981 RMK A01 T00770024  RH  069%=      5-min Rain = 0
KST2 190403Z 34022KT 08/02 A2982 RMK A01 T00770024  RH  069%=      5-min Rain = 0
KST2 190404Z 33025KT 08/02 A2982 RMK A01 T00770024  RH  069%=      5-min Rain = 0
KST2 190405Z 33021KT 08/02 A2982 RMK A01 T00770024  RH  069%=      5-min Rain = 0
KST2 190406Z 33021G26KT 08/03 A2982 RMK A01 T00760026  RH  070%=      5-min Rain = 0
KST2 190407Z 33024G32KT 08/02 A2982 RMK A01 T00750024  RH  070%=      5-min Rain = 0
KST2 190408Z 33029KT 07/03 A2982 RMK A01 T00740025  RH  071%=      5-min Rain = 0
KST2 190409Z 33028G34KT 07/02 A2982 RMK A01 T00740023  RH  070%=      5-min Rain = 0
KST2 190410Z 34022KT 07/02 A2982 RMK A01 T00730024  RH  071%=      5-min Rain = 0
KST2 190411Z 34024G30KT 07/02 A2982 RMK A01 T00730024  RH  071%=      5-min Rain = 0
KST2 190412Z 34024G30KT 07/02 A2982 RMK A01 T00720024  RH  071%=      5-min Rain = 0
KST2 190413Z 34023KT 07/02 A2982 RMK A01 T00720024  RH  071%=      5-min Rain = 0
KST2 190414Z 34021KT 07/02 A2982 RMK A01 T00720023  RH  071%=      5-min Rain = 0
KST2 190415Z 34023KT 07/02 A2982 RMK A01 T00710024  RH  072%=      5-min Rain = 0
KST2 190416Z 34022G27KT 07/02 A2983 RMK A01 T00710024  RH  072%=      5-min Rain = 0
KST2 190417Z 33021KT 07/02 A2983 RMK A01 T00710024  RH  072%=      5-min Rain = 0
KST2 190418Z 33020KT 07/02 A2983 RMK A01 T00710023  RH  072%=      5-min Rain = 0
KST2 190419Z 33022G29KT 07/02 A2983 RMK A01 T00710024  RH  072%=      5-min Rain = 0
KST2 190420Z 33023KT 07/02 A2983 RMK A01 T00710022  RH  071%=      5-min Rain = 0
KST2 190421Z 34020KT 07/02 A2983 RMK A01 T00710022  RH  071%=      5-min Rain = 0
KST2 190422Z 33019KT 07/02 A2983 RMK A01 T00710024  RH  072%=      5-min Rain = 0
KST2 190423Z 33024KT 07/02 A2983 RMK A01 T00710023  RH  072%=      5-min Rain = 0
KST2 190424Z 33020G27KT 07/02 A2983 RMK A01 T00700022  RH  071%=      5-min Rain = 0
KST2 190425Z 34021KT 07/02 A2983 RMK A01 T00700023  RH  072%=      5-min Rain = 0
KST2 190426Z 33020G25KT 07/02 A2983 RMK A01 T00700023  RH  072%=      5-min Rain = 0
KST2 190427Z 33021KT 07/02 A2983 RMK A01 T00700023  RH  072%=      5-min Rain = 0
KST2 190428Z 34021G28KT 07/02 A2984 RMK A01 T00700023  RH  072%=      5-min Rain = 0
KST2 190429Z 33020KT 07/02 A2984 RMK A01 T00700023  RH  072%=      5-min Rain = 0
KST2 190430Z 34018G23KT 07/02 A2984 RMK A01 T00700024  RH  073%=      5-min Rain = 0
KST2 190431Z 33016KT 07/03 A2984 RMK A01 T00690025  RH  073%=      5-min Rain = 0
KST2 190432Z 33020KT 07/02 A2984 RMK A01 T00690024  RH  073%=      5-min Rain = 0
KST2 190433Z 33019KT 07/02 A2985 RMK A01 T00690023  RH  073%=      5-min Rain = 0
KST2 190434Z 33017KT 07/02 A2985 RMK A01 T00690024  RH  073%=      5-min Rain = 0
KST2 190435Z 33021G26KT 07/02 A2985 RMK A01 T00680023  RH  073%=      5-min Rain = 0
KST2 190436Z 33021KT 07/02 A2985 RMK A01 T00690023  RH  072%=      5-min Rain = 0
KST2 190437Z 33021G27KT 07/02 A2985 RMK A01 T00690024  RH  073%=      5-min Rain = 0
KST2 190438Z 33022KT 07/02 A2985 RMK A01 T00690023  RH  073%=      5-min Rain = 0
KST2 190439Z 33020KT 07/02 A2985 RMK A01 T00690024  RH  073%=      5-min Rain = 0
KST2 190440Z 33021KT 07/02 A2985 RMK A01 T00690023  RH  072%=      5-min Rain = 0
KST2 190441Z 33019KT 07/03 A2985 RMK A01 T00700025  RH  073%=      5-min Rain = 0
KST2 190442Z 33021KT 07/03 A2986 RMK A01 T00700025  RH  073%=      5-min Rain = 0
KST2 190443Z 33024KT 07/02 A2986 RMK A01 T00700023  RH  072%=      5-min Rain = 0
KST2 190444Z 33024KT 07/02 A2986 RMK A01 T00710024  RH  072%=      5-min Rain = 0
KST2 190445Z 33024G29KT 07/02 A2986 RMK A01 T00710024  RH  072%=      5-min Rain = 0
KST2 190446Z 33022KT 07/03 A2986 RMK A01 T00720025  RH  072%=      5-min Rain = 0
KST2 190447Z 33018KT 07/03 A2986 RMK A01 T00720025  RH  072%=      5-min Rain = 0
KST2 190448Z 33019G24KT 07/03 A2987 RMK A01 T00720027  RH  073%=      5-min Rain = 0
KST2 190449Z 33019G25KT 07/03 A2987 RMK A01 T00720026  RH  073%=      5-min Rain = 0
KST2 190450Z 33017KT 07/03 A2987 RMK A01 T00720027  RH  073%=      5-min Rain = 0
KST2 190451Z 33022G27KT 07/03 A2987 RMK A01 T00720027  RH  073%=      5-min Rain = 0
KST2 190452Z 33020KT 07/03 A2987 RMK A01 T00720026  RH  072%=      5-min Rain = 0
KST2 190453Z 33021KT 07/03 A2987 RMK A01 T00730026  RH  072%=      5-min Rain = 0
KST2 190454Z 33021KT 07/03 A2987 RMK A01 T00730026  RH  072%=      5-min Rain = 0
KST2 190455Z 33021KT 07/03 A2987 RMK A01 T00730026  RH  072%=      5-min Rain = 0
KST2 190456Z 33020G26KT 07/03 A2988 RMK A01 T00730026  RH  072%=      5-min Rain = 0
KST2 190457Z 33020KT 07/03 A2988 RMK A01 T00730026  RH  072%=      5-min Rain = 0
KST2 190458Z 33019G24KT 07/03 A2988 RMK A01 T00730026  RH  072%=      5-min Rain = 0
KST2 190459Z 32023G28KT 07/03 A2988 RMK A01 T00730026  RH  072%=      5-min Rain = 0
KST2 190500Z 33025KT 07/03 A2988 RMK A01 T00740026  RH  072%=      5-min Rain = 0
KST2 190501Z 33024G29KT 07/03 A2989 RMK A01 T00730025  RH  072%=      5-min Rain = 0
KST2 190502Z 32027KT 07/03 A2989 RMK A01 T00730025  RH  071%=      5-min Rain = 0
KST2 190503Z 33028G35KT 07/02 A2989 RMK A01 T00730024  RH  071%=      5-min Rain = 0
KST2 190504Z 32029KT 07/02 A2989 RMK A01 T00730024  RH  071%=      5-min Rain = 0
KST2 190505Z 33025G31KT 07/03 A2989 RMK A01 T00730025  RH  071%=      5-min Rain = 0
KST2 190506Z 33024G30KT 07/03 A2989 RMK A01 T00730025  RH  072%=      5-min Rain = 0
KST2 190507Z 32024G29KT 07/03 A2989 RMK A01 T00730026  RH  072%=      5-min Rain = 0
KST2 190508Z 32028KT 07/02 A2989 RMK A01 T00730024  RH  071%=      5-min Rain = 0
KST2 190509Z 32026KT 07/02 A299 RMK A01 T00730024  RH  071%=      5-min Rain = 0
KST2 190510Z 32026KT 07/02 A299 RMK A01 T00720024  RH  071%=      5-min Rain = 0
KST2 190511Z 32021G26KT 07/02 A299 RMK A01 T00720024  RH  072%=      5-min Rain = 0
KST2 190512Z 32023KT 07/03 A299 RMK A01 T00720025  RH  072%=      5-min Rain = 0
KST2 190513Z 32021G28KT 07/03 A299 RMK A01 T00720025  RH  072%=      5-min Rain = 0
KST2 190514Z 33020G29KT 07/03 A299 RMK A01 T00720026  RH  073%=      5-min Rain = 0
KST2 190515Z 33024KT 07/03 A299 RMK A01 T00720025  RH  072%=      5-min Rain = 0
KST2 190516Z 33024G31KT 07/02 A299 RMK A01 T00720024  RH  071%=      5-min Rain = 0
KST2 190517Z 33021G27KT 07/03 A2991 RMK A01 T00720025  RH  072%=      5-min Rain = 0
KST2 190518Z 33022G27KT 07/03 A2991 RMK A01 T00720025  RH  072%=      5-min Rain = 0
KST2 190519Z 33022G27KT 07/03 A2991 RMK A01 T00720025  RH  072%=      5-min Rain = 0
KST2 190520Z 33026KT 07/02 A2991 RMK A01 T00720024  RH  072%=      5-min Rain = 0
KST2 190521Z 32021G26KT 07/02 A2991 RMK A01 T00710023  RH  071%=      5-min Rain = 0
KST2 190522Z 33026G31KT 07/02 A2991 RMK A01 T00710023  RH  071%=      5-min Rain = 0
KST2 190523Z 33026KT 07/02 A2991 RMK A01 T00700021  RH  071%=      5-min Rain = 0
KST2 190524Z 33026KT 07/02 A2992 RMK A01 T00700020  RH  071%=      5-min Rain = 0
KST2 190525Z 33021KT 07/02 A2992 RMK A01 T00690020  RH  071%=      5-min Rain = 0
KST2 190526Z 33018KT 07/02 A2992 RMK A01 T00690023  RH  072%=      5-min Rain = 0
KST2 190527Z 34019G25KT 07/02 A2992 RMK A01 T00680023  RH  073%=      5-min Rain = 0
KST2 190528Z 34022KT 07/02 A2992 RMK A01 T00680022  RH  072%=      5-min Rain = 0
KST2 190529Z 33023G28KT 07/02 A2992 RMK A01 T00680021  RH  072%=      5-min Rain = 0
KST2 190530Z 34021G26KT 07/02 A2992 RMK A01 T00680021  RH  072%=      5-min Rain = 0
KST2 190531Z 33020KT 07/02 A2992 RMK A01 T00680021  RH  072%=      5-min Rain = 0
KST2 190532Z 34019G25KT 07/02 A2992 RMK A01 T00680022  RH  073%=      5-min Rain = 0
KST2 190533Z 34019G24KT 07/02 A2992 RMK A01 T00680021  RH  072%=      5-min Rain = 0
KST2 190534Z 34020KT 07/02 A2992 RMK A01 T00680021  RH  072%=      5-min Rain = 0
KST2 190535Z 34018G23KT 07/02 A2992 RMK A01 T00680021  RH  072%=      5-min Rain = 0
KST2 190536Z 33018KT 07/02 A2992 RMK A01 T00680021  RH  072%=      5-min Rain = 0
KST2 190537Z 33016KT 07/02 A2993 RMK A01 T00680022  RH  073%=      5-min Rain = 0
KST2 190538Z 33017G22KT 07/02 A2993 RMK A01 T00670022  RH  073%=      5-min Rain = 0
KST2 190539Z 34016KT 07/02 A2993 RMK A01 T00670021  RH  073%=      5-min Rain = 0
KST2 190540Z 33018KT 07/02 A2993 RMK A01 T00670022  RH  073%=      5-min Rain = 0
KST2 190541Z 33019G25KT 07/02 A2993 RMK A01 T00670021  RH  072%=      5-min Rain = 0
KST2 190542Z 33026KT 07/02 A2993 RMK A01 T00670019  RH  071%=      5-min Rain = 0
KST2 190543Z 33022KT 07/02 A2993 RMK A01 T00670019  RH  071%=      5-min Rain = 0
KST2 190544Z 33025KT 07/02 A2993 RMK A01 T00670018  RH  071%=      5-min Rain = 0
KST2 190545Z 33024G29KT 07/02 A2993 RMK A01 T00680018  RH  071%=      5-min Rain = 0
KST2 190546Z 32024KT 07/02 A2994 RMK A01 T00670018  RH  071%=      5-min Rain = 0
KST2 190547Z 33027G33KT 07/02 A2993 RMK A01 T00670018  RH  071%=      5-min Rain = 0
KST2 190548Z 33025G31KT 07/02 A2994 RMK A01 T00670017  RH  070%=      5-min Rain = 0
KST2 190549Z 33022KT 07/02 A2994 RMK A01 T00670018  RH  071%=      5-min Rain = 0
KST2 190550Z 33021KT 07/02 A2994 RMK A01 T00660018  RH  071%=      5-min Rain = 0
KST2 190551Z 33020KT 07/02 A2994 RMK A01 T00660018  RH  072%=      5-min Rain = 0
KST2 190552Z 33021G26KT 07/02 A2994 RMK A01 T00660018  RH  072%=      5-min Rain = 0
KST2 190553Z 33022G27KT 07/02 A2994 RMK A01 T00650017  RH  071%=      5-min Rain = 0
KST2 190554Z 33020G25KT 07/02 A2994 RMK A01 T00650017  RH  071%=      5-min Rain = 0
KST2 190555Z 34024KT 07/02 A2994 RMK A01 T00650017  RH  071%=      5-min Rain = 0
KST2 190556Z 33020KT 07/02 A2994 RMK A01 T00650017  RH  071%=      5-min Rain = 0
KST2 190557Z 33018G23KT 07/02 A2995 RMK A01 T00650018  RH  072%=      5-min Rain = 0
KST2 190558Z 33020KT 07/02 A2995 RMK A01 T00650018  RH  072%=      5-min Rain = 0
KST2 190559Z 33016G21KT 07/02 A2995 RMK A01 T00650019  RH  072%=      5-min Rain = 0

Page generated in 0.0811 seconds.